<?xml version="1.0" encoding="UTF-8" standalone="no" ?>
<gpx xmlns="http://www.topografix.com/GPX/1/1" xmlns:xsi="http://www.w3.org/2001/XMLSchema-instance" xsi:schemaLocation="http://www.topografix.com/GPX/1/1 http://www.topografix.com/GPX/1/1/gpx.xsd" version="1.1" creator="VisuGPX - https://www.visugpx.com">
  <metadata>
    <name>col du pertuis</name>
  </metadata>
  <trk>
    <name><![CDATA[col du pertuis]]></name>
    <trkseg>
      <trkpt lat="45.79096" lon="3.11313">
        <ele>343.062156</ele>
        <time>2022-06-16T16:50:12.212Z</time>
      </trkpt>
      <trkpt lat="45.79109" lon="3.11346">
        <ele>343.062156</ele>
        <time>2022-06-16T16:50:16.557Z</time>
      </trkpt>
      <trkpt lat="45.79118" lon="3.11369">
        <ele>343.062156</ele>
        <time>2022-06-16T16:50:19.853Z</time>
      </trkpt>
      <trkpt lat="45.79098" lon="3.11433">
        <ele>343.034996</ele>
        <time>2022-06-16T16:50:27.875Z</time>
      </trkpt>
      <trkpt lat="45.79076" lon="3.11475">
        <ele>342.816318</ele>
        <time>2022-06-16T16:50:33.571Z</time>
      </trkpt>
      <trkpt lat="45.79036" lon="3.11532">
        <ele>342.4764</ele>
        <time>2022-06-16T16:50:42.216Z</time>
      </trkpt>
      <trkpt lat="45.79026" lon="3.11547">
        <ele>342.386753</ele>
        <time>2022-06-16T16:50:44.357Z</time>
      </trkpt>
      <trkpt lat="45.7896" lon="3.11642">
        <ele>341.889087</ele>
        <time>2022-06-16T16:50:58.786Z</time>
      </trkpt>
      <trkpt lat="45.78932" lon="3.11682">
        <ele>341.753658</ele>
        <time>2022-06-16T16:51:05.117Z</time>
      </trkpt>
      <trkpt lat="45.78935" lon="3.11701">
        <ele>341.704734</ele>
        <time>2022-06-16T16:51:07.311Z</time>
      </trkpt>
      <trkpt lat="45.78957" lon="3.11764">
        <ele>341.537511</ele>
        <time>2022-06-16T16:51:15.141Z</time>
      </trkpt>
      <trkpt lat="45.78968" lon="3.11795">
        <ele>341.452283</ele>
        <time>2022-06-16T16:51:19.327Z</time>
      </trkpt>
      <trkpt lat="45.78972" lon="3.11807">
        <ele>341.420105</ele>
        <time>2022-06-16T16:51:20.973Z</time>
      </trkpt>
      <trkpt lat="45.78982" lon="3.11836">
        <ele>341.350667</ele>
        <time>2022-06-16T16:51:25.209Z</time>
      </trkpt>
      <trkpt lat="45.78991" lon="3.11862">
        <ele>341.323771</ele>
        <time>2022-06-16T16:51:29.150Z</time>
      </trkpt>
      <trkpt lat="45.78999" lon="3.11884">
        <ele>341.300148</ele>
        <time>2022-06-16T16:51:32.444Z</time>
      </trkpt>
      <trkpt lat="45.79014" lon="3.11932">
        <ele>341.250126</ele>
        <time>2022-06-16T16:51:39.302Z</time>
      </trkpt>
      <trkpt lat="45.79023" lon="3.11978">
        <ele>341.204832</ele>
        <time>2022-06-16T16:51:45.263Z</time>
      </trkpt>
      <trkpt lat="45.79023" lon="3.1201">
        <ele>341.174744</ele>
        <time>2022-06-16T16:51:49.075Z</time>
      </trkpt>
      <trkpt lat="45.79013" lon="3.12059">
        <ele>341.126801</ele>
        <time>2022-06-16T16:51:54.856Z</time>
      </trkpt>
      <trkpt lat="45.79003" lon="3.12088">
        <ele>340.943392</ele>
        <time>2022-06-16T16:51:58.499Z</time>
      </trkpt>
      <trkpt lat="45.78997" lon="3.12116">
        <ele>340.67107</ele>
        <time>2022-06-16T16:52:01.506Z</time>
      </trkpt>
      <trkpt lat="45.78998" lon="3.12394">
        <ele>337.773653</ele>
        <time>2022-06-16T16:52:28.011Z</time>
      </trkpt>
      <trkpt lat="45.78985" lon="3.124">
        <ele>337.53245</ele>
        <time>2022-06-16T16:52:29.675Z</time>
      </trkpt>
      <trkpt lat="45.78965" lon="3.12413">
        <ele>337.121794</ele>
        <time>2022-06-16T16:52:32.569Z</time>
      </trkpt>
      <trkpt lat="45.78961" lon="3.12416">
        <ele>337.028841</ele>
        <time>2022-06-16T16:52:33.237Z</time>
      </trkpt>
      <trkpt lat="45.78932" lon="3.12403">
        <ele>336.465348</ele>
        <time>2022-06-16T16:52:37.123Z</time>
      </trkpt>
      <trkpt lat="45.78929" lon="3.12398">
        <ele>336.383507</ele>
        <time>2022-06-16T16:52:37.739Z</time>
      </trkpt>
      <trkpt lat="45.78919" lon="3.12393">
        <ele>336.174896</ele>
        <time>2022-06-16T16:52:39.179Z</time>
      </trkpt>
      <trkpt lat="45.78877" lon="3.12409">
        <ele>335.374835</ele>
        <time>2022-06-16T16:52:44.878Z</time>
      </trkpt>
      <trkpt lat="45.78834" lon="3.12432">
        <ele>334.833657</ele>
        <time>2022-06-16T16:52:51.150Z</time>
      </trkpt>
      <trkpt lat="45.78823" lon="3.12432">
        <ele>334.717975</ele>
        <time>2022-06-16T16:52:52.732Z</time>
      </trkpt>
      <trkpt lat="45.78814" lon="3.12443">
        <ele>334.591389</ele>
        <time>2022-06-16T16:52:54.337Z</time>
      </trkpt>
      <trkpt lat="45.78819" lon="3.12459">
        <ele>334.456772</ele>
        <time>2022-06-16T16:52:56.063Z</time>
      </trkpt>
      <trkpt lat="45.78828" lon="3.12482">
        <ele>334.262305</ele>
        <time>2022-06-16T16:52:58.709Z</time>
      </trkpt>
      <trkpt lat="45.78835" lon="3.125">
        <ele>334.105599</ele>
        <time>2022-06-16T16:53:00.755Z</time>
      </trkpt>
      <trkpt lat="45.78915" lon="3.12687">
        <ele>333.102208</ele>
        <time>2022-06-16T16:53:24.960Z</time>
      </trkpt>
      <trkpt lat="45.78941" lon="3.1275">
        <ele>332.955049</ele>
        <time>2022-06-16T16:53:33.715Z</time>
      </trkpt>
      <trkpt lat="45.78982" lon="3.12846">
        <ele>332.881393</ele>
        <time>2022-06-16T16:53:47.668Z</time>
      </trkpt>
      <trkpt lat="45.7899" lon="3.12874">
        <ele>332.921793</ele>
        <time>2022-06-16T16:53:51.552Z</time>
      </trkpt>
      <trkpt lat="45.79011" lon="3.1312">
        <ele>333.194264</ele>
        <time>2022-06-16T16:54:24.767Z</time>
      </trkpt>
      <trkpt lat="45.79024" lon="3.13249">
        <ele>333.254769</ele>
        <time>2022-06-16T16:54:41.874Z</time>
      </trkpt>
      <trkpt lat="45.79039" lon="3.13397">
        <ele>332.895205</ele>
        <time>2022-06-16T16:54:58.794Z</time>
      </trkpt>
      <trkpt lat="45.7904" lon="3.13425">
        <ele>332.771549</ele>
        <time>2022-06-16T16:55:01.728Z</time>
      </trkpt>
      <trkpt lat="45.7904" lon="3.13465">
        <ele>332.596044</ele>
        <time>2022-06-16T16:55:05.862Z</time>
      </trkpt>
      <trkpt lat="45.78895" lon="3.13539">
        <ele>331.705744</ele>
        <time>2022-06-16T16:55:29.175Z</time>
      </trkpt>
      <trkpt lat="45.78872" lon="3.1362">
        <ele>331.382781</ele>
        <time>2022-06-16T16:55:39.032Z</time>
      </trkpt>
      <trkpt lat="45.78841" lon="3.13757">
        <ele>331.052073</ele>
        <time>2022-06-16T16:55:55.700Z</time>
      </trkpt>
      <trkpt lat="45.78837" lon="3.13773">
        <ele>331.027239</ele>
        <time>2022-06-16T16:55:57.748Z</time>
      </trkpt>
      <trkpt lat="45.78824" lon="3.13838">
        <ele>330.928384</ele>
        <time>2022-06-16T16:56:05.808Z</time>
      </trkpt>
      <trkpt lat="45.78818" lon="3.13882">
        <ele>330.86239</ele>
        <time>2022-06-16T16:56:11.211Z</time>
      </trkpt>
      <trkpt lat="45.78813" lon="3.13895">
        <ele>330.840818</ele>
        <time>2022-06-16T16:56:12.972Z</time>
      </trkpt>
      <trkpt lat="45.78808" lon="3.1392">
        <ele>330.811513</ele>
        <time>2022-06-16T16:56:16.103Z</time>
      </trkpt>
      <trkpt lat="45.78807" lon="3.13921">
        <ele>330.815517</ele>
        <time>2022-06-16T16:56:16.451Z</time>
      </trkpt>
      <trkpt lat="45.78795" lon="3.13941">
        <ele>330.852557</ele>
        <time>2022-06-16T16:56:19.565Z</time>
      </trkpt>
      <trkpt lat="45.78795" lon="3.13948">
        <ele>330.862434</ele>
        <time>2022-06-16T16:56:20.409Z</time>
      </trkpt>
      <trkpt lat="45.78772" lon="3.13968">
        <ele>330.915968</ele>
        <time>2022-06-16T16:56:24.904Z</time>
      </trkpt>
      <trkpt lat="45.78764" lon="3.13975">
        <ele>330.935469</ele>
        <time>2022-06-16T16:56:26.572Z</time>
      </trkpt>
      <trkpt lat="45.78569" lon="3.14128">
        <ele>331.866245</ele>
        <time>2022-06-16T16:57:10.529Z</time>
      </trkpt>
      <trkpt lat="45.78517" lon="3.14177">
        <ele>332.274268</ele>
        <time>2022-06-16T16:57:24.848Z</time>
      </trkpt>
      <trkpt lat="45.78494" lon="3.14189">
        <ele>332.442796</ele>
        <time>2022-06-16T16:57:30.315Z</time>
      </trkpt>
      <trkpt lat="45.78481" lon="3.1419">
        <ele>332.536823</ele>
        <time>2022-06-16T16:57:33.291Z</time>
      </trkpt>
      <trkpt lat="45.78475" lon="3.14197">
        <ele>332.591616</ele>
        <time>2022-06-16T16:57:34.869Z</time>
      </trkpt>
      <trkpt lat="45.78473" lon="3.14211">
        <ele>332.664858</ele>
        <time>2022-06-16T16:57:36.966Z</time>
      </trkpt>
      <trkpt lat="45.78443" lon="3.14249">
        <ele>332.959576</ele>
        <time>2022-06-16T16:57:45.338Z</time>
      </trkpt>
      <trkpt lat="45.78406" lon="3.14294">
        <ele>333.310962</ele>
        <time>2022-06-16T16:57:55.395Z</time>
      </trkpt>
      <trkpt lat="45.78371" lon="3.14336">
        <ele>333.644404</ele>
        <time>2022-06-16T16:58:04.971Z</time>
      </trkpt>
      <trkpt lat="45.78356" lon="3.14347">
        <ele>333.753242</ele>
        <time>2022-06-16T16:58:08.447Z</time>
      </trkpt>
      <trkpt lat="45.78341" lon="3.14346">
        <ele>333.850829</ele>
        <time>2022-06-16T16:58:11.765Z</time>
      </trkpt>
      <trkpt lat="45.78329" lon="3.14358">
        <ele>333.948154</ele>
        <time>2022-06-16T16:58:14.929Z</time>
      </trkpt>
      <trkpt lat="45.78325" lon="3.14379">
        <ele>334.047159</ele>
        <time>2022-06-16T16:58:18.266Z</time>
      </trkpt>
      <trkpt lat="45.78332" lon="3.14399">
        <ele>334.14689</ele>
        <time>2022-06-16T16:58:21.440Z</time>
      </trkpt>
      <trkpt lat="45.7828" lon="3.14469">
        <ele>334.613131</ele>
        <time>2022-06-16T16:58:35.876Z</time>
      </trkpt>
      <trkpt lat="45.78184" lon="3.14572">
        <ele>335.017398</ele>
        <time>2022-06-16T16:59:00.903Z</time>
      </trkpt>
      <trkpt lat="45.78123" lon="3.14621">
        <ele>335.16323</ele>
        <time>2022-06-16T16:59:13.358Z</time>
      </trkpt>
      <trkpt lat="45.7803" lon="3.14671">
        <ele>334.734896</ele>
        <time>2022-06-16T16:59:29.293Z</time>
      </trkpt>
      <trkpt lat="45.77941" lon="3.14708">
        <ele>334.145335</ele>
        <time>2022-06-16T16:59:43.339Z</time>
      </trkpt>
      <trkpt lat="45.77947" lon="3.14728">
        <ele>334.051886</ele>
        <time>2022-06-16T16:59:46.410Z</time>
      </trkpt>
      <trkpt lat="45.77939" lon="3.14763">
        <ele>333.895807</ele>
        <time>2022-06-16T16:59:51.975Z</time>
      </trkpt>
      <trkpt lat="45.77927" lon="3.14781">
        <ele>333.792653</ele>
        <time>2022-06-16T16:59:55.562Z</time>
      </trkpt>
      <trkpt lat="45.77923" lon="3.14782">
        <ele>333.770185</ele>
        <time>2022-06-16T16:59:56.383Z</time>
      </trkpt>
      <trkpt lat="45.7791" lon="3.14785">
        <ele>333.690104</ele>
        <time>2022-06-16T16:59:59.319Z</time>
      </trkpt>
      <trkpt lat="45.77915" lon="3.14813">
        <ele>333.567801</ele>
        <time>2022-06-16T17:00:02.363Z</time>
      </trkpt>
      <trkpt lat="45.77924" lon="3.14893">
        <ele>333.231604</ele>
        <time>2022-06-16T17:00:11.163Z</time>
      </trkpt>
      <trkpt lat="45.77927" lon="3.14959">
        <ele>332.974665</ele>
        <time>2022-06-16T17:00:18.789Z</time>
      </trkpt>
      <trkpt lat="45.7792" lon="3.15063">
        <ele>332.792209</ele>
        <time>2022-06-16T17:00:31.473Z</time>
      </trkpt>
      <trkpt lat="45.77901" lon="3.15283">
        <ele>332.354719</ele>
        <time>2022-06-16T17:00:57.147Z</time>
      </trkpt>
      <trkpt lat="45.77897" lon="3.15337">
        <ele>332.222796</ele>
        <time>2022-06-16T17:01:03.393Z</time>
      </trkpt>
      <trkpt lat="45.77893" lon="3.15384">
        <ele>332.11001</ele>
        <time>2022-06-16T17:01:08.754Z</time>
      </trkpt>
      <trkpt lat="45.7788" lon="3.1553">
        <ele>331.651263</ele>
        <time>2022-06-16T17:01:25.249Z</time>
      </trkpt>
      <trkpt lat="45.77876" lon="3.15578">
        <ele>331.458796</ele>
        <time>2022-06-16T17:01:30.688Z</time>
      </trkpt>
      <trkpt lat="45.77871" lon="3.1564">
        <ele>331.210487</ele>
        <time>2022-06-16T17:01:37.781Z</time>
      </trkpt>
      <trkpt lat="45.77865" lon="3.15714">
        <ele>330.914994</ele>
        <time>2022-06-16T17:01:45.714Z</time>
      </trkpt>
      <trkpt lat="45.77865" lon="3.15716">
        <ele>330.906986</ele>
        <time>2022-06-16T17:01:45.917Z</time>
      </trkpt>
      <trkpt lat="45.77861" lon="3.15763">
        <ele>330.538091</ele>
        <time>2022-06-16T17:01:50.852Z</time>
      </trkpt>
      <trkpt lat="45.77848" lon="3.15922">
        <ele>329.246304</ele>
        <time>2022-06-16T17:02:06.828Z</time>
      </trkpt>
      <trkpt lat="45.77837" lon="3.16048">
        <ele>328.37644</ele>
        <time>2022-06-16T17:02:19.141Z</time>
      </trkpt>
      <trkpt lat="45.77804" lon="3.16445">
        <ele>326.537993</ele>
        <time>2022-06-16T17:03:02.412Z</time>
      </trkpt>
      <trkpt lat="45.77799" lon="3.16506">
        <ele>326.4257</ele>
        <time>2022-06-16T17:03:09.875Z</time>
      </trkpt>
      <trkpt lat="45.77779" lon="3.1674">
        <ele>326.786615</ele>
        <time>2022-06-16T17:03:40.496Z</time>
      </trkpt>
      <trkpt lat="45.77763" lon="3.16929">
        <ele>328.295249</ele>
        <time>2022-06-16T17:04:10.464Z</time>
      </trkpt>
      <trkpt lat="45.77758" lon="3.16999">
        <ele>328.861241</ele>
        <time>2022-06-16T17:04:23.493Z</time>
      </trkpt>
      <trkpt lat="45.77735" lon="3.17265">
        <ele>332.178148</ele>
        <time>2022-06-16T17:05:14.068Z</time>
      </trkpt>
      <trkpt lat="45.77722" lon="3.1741">
        <ele>333.002539</ele>
        <time>2022-06-16T17:05:38.069Z</time>
      </trkpt>
      <trkpt lat="45.77714" lon="3.17457">
        <ele>333.271717</ele>
        <time>2022-06-16T17:05:44.515Z</time>
      </trkpt>
      <trkpt lat="45.77713" lon="3.1746">
        <ele>333.292137</ele>
        <time>2022-06-16T17:05:44.987Z</time>
      </trkpt>
      <trkpt lat="45.77709" lon="3.17472">
        <ele>333.364006</ele>
        <time>2022-06-16T17:05:46.580Z</time>
      </trkpt>
      <trkpt lat="45.777" lon="3.17481">
        <ele>333.456807</ele>
        <time>2022-06-16T17:05:48.458Z</time>
      </trkpt>
      <trkpt lat="45.77695" lon="3.17495">
        <ele>333.545165</ele>
        <time>2022-06-16T17:05:50.324Z</time>
      </trkpt>
      <trkpt lat="45.77696" lon="3.17505">
        <ele>333.560155</ele>
        <time>2022-06-16T17:05:51.515Z</time>
      </trkpt>
      <trkpt lat="45.77702" lon="3.1752">
        <ele>333.526544</ele>
        <time>2022-06-16T17:05:53.455Z</time>
      </trkpt>
      <trkpt lat="45.77705" lon="3.17524">
        <ele>333.512883</ele>
        <time>2022-06-16T17:05:54.209Z</time>
      </trkpt>
      <trkpt lat="45.77708" lon="3.17537">
        <ele>333.485045</ele>
        <time>2022-06-16T17:05:55.898Z</time>
      </trkpt>
      <trkpt lat="45.77709" lon="3.17539">
        <ele>333.480101</ele>
        <time>2022-06-16T17:05:56.199Z</time>
      </trkpt>
      <trkpt lat="45.77704" lon="3.17599">
        <ele>333.359617</ele>
        <time>2022-06-16T17:06:03.176Z</time>
      </trkpt>
      <trkpt lat="45.77698" lon="3.17695">
        <ele>333.167407</ele>
        <time>2022-06-16T17:06:14.809Z</time>
      </trkpt>
      <trkpt lat="45.77671" lon="3.18">
        <ele>331.924263</ele>
        <time>2022-06-16T17:06:47.560Z</time>
      </trkpt>
      <trkpt lat="45.77669" lon="3.18024">
        <ele>331.871728</ele>
        <time>2022-06-16T17:06:50.450Z</time>
      </trkpt>
      <trkpt lat="45.77665" lon="3.18109">
        <ele>331.752293</ele>
        <time>2022-06-16T17:07:00.252Z</time>
      </trkpt>
      <trkpt lat="45.77663" lon="3.18165">
        <ele>331.673965</ele>
        <time>2022-06-16T17:07:06.819Z</time>
      </trkpt>
      <trkpt lat="45.77657" lon="3.18179">
        <ele>331.650919</ele>
        <time>2022-06-16T17:07:08.972Z</time>
      </trkpt>
      <trkpt lat="45.7766" lon="3.182">
        <ele>331.620556</ele>
        <time>2022-06-16T17:07:11.451Z</time>
      </trkpt>
      <trkpt lat="45.77649" lon="3.18271">
        <ele>331.565436</ele>
        <time>2022-06-16T17:07:20.162Z</time>
      </trkpt>
      <trkpt lat="45.77633" lon="3.18469">
        <ele>332.024128</ele>
        <time>2022-06-16T17:07:48.327Z</time>
      </trkpt>
      <trkpt lat="45.77621" lon="3.18606">
        <ele>332.036495</ele>
        <time>2022-06-16T17:08:06.497Z</time>
      </trkpt>
      <trkpt lat="45.77613" lon="3.18664">
        <ele>331.976073</ele>
        <time>2022-06-16T17:08:13.463Z</time>
      </trkpt>
      <trkpt lat="45.77613" lon="3.18715">
        <ele>331.9248</ele>
        <time>2022-06-16T17:08:19.504Z</time>
      </trkpt>
      <trkpt lat="45.77623" lon="3.18759">
        <ele>331.877149</ele>
        <time>2022-06-16T17:08:24.793Z</time>
      </trkpt>
      <trkpt lat="45.77623" lon="3.18776">
        <ele>331.813921</ele>
        <time>2022-06-16T17:08:26.626Z</time>
      </trkpt>
      <trkpt lat="45.77618" lon="3.18792">
        <ele>331.689328</ele>
        <time>2022-06-16T17:08:28.485Z</time>
      </trkpt>
      <trkpt lat="45.77619" lon="3.18814">
        <ele>331.529491</ele>
        <time>2022-06-16T17:08:30.980Z</time>
      </trkpt>
      <trkpt lat="45.77623" lon="3.18826">
        <ele>331.439736</ele>
        <time>2022-06-16T17:08:32.219Z</time>
      </trkpt>
      <trkpt lat="45.77621" lon="3.18844">
        <ele>331.3109</ele>
        <time>2022-06-16T17:08:34.021Z</time>
      </trkpt>
      <trkpt lat="45.77597" lon="3.18914">
        <ele>330.757697</ele>
        <time>2022-06-16T17:08:41.666Z</time>
      </trkpt>
      <trkpt lat="45.77588" lon="3.19">
        <ele>330.148584</ele>
        <time>2022-06-16T17:08:50.279Z</time>
      </trkpt>
      <trkpt lat="45.77576" lon="3.19093">
        <ele>329.819952</ele>
        <time>2022-06-16T17:09:00.621Z</time>
      </trkpt>
      <trkpt lat="45.77561" lon="3.19255">
        <ele>329.348697</ele>
        <time>2022-06-16T17:09:19.245Z</time>
      </trkpt>
      <trkpt lat="45.77548" lon="3.1942">
        <ele>329.554245</ele>
        <time>2022-06-16T17:09:41.086Z</time>
      </trkpt>
      <trkpt lat="45.77548" lon="3.1947">
        <ele>329.634629</ele>
        <time>2022-06-16T17:09:48.047Z</time>
      </trkpt>
      <trkpt lat="45.77548" lon="3.19514">
        <ele>329.704499</ele>
        <time>2022-06-16T17:09:54.111Z</time>
      </trkpt>
      <trkpt lat="45.77551" lon="3.19537">
        <ele>329.731363</ele>
        <time>2022-06-16T17:09:57.265Z</time>
      </trkpt>
      <trkpt lat="45.77582" lon="3.19637">
        <ele>329.814439</ele>
        <time>2022-06-16T17:10:12.157Z</time>
      </trkpt>
      <trkpt lat="45.77589" lon="3.19653">
        <ele>329.829082</ele>
        <time>2022-06-16T17:10:14.649Z</time>
      </trkpt>
      <trkpt lat="45.77597" lon="3.19673">
        <ele>329.846662</ele>
        <time>2022-06-16T17:10:17.543Z</time>
      </trkpt>
      <trkpt lat="45.77625" lon="3.19718">
        <ele>329.892126</ele>
        <time>2022-06-16T17:10:24.614Z</time>
      </trkpt>
      <trkpt lat="45.77648" lon="3.19735">
        <ele>329.916385</ele>
        <time>2022-06-16T17:10:28.842Z</time>
      </trkpt>
      <trkpt lat="45.77651" lon="3.1975">
        <ele>329.908369</ele>
        <time>2022-06-16T17:10:30.726Z</time>
      </trkpt>
      <trkpt lat="45.77661" lon="3.19765">
        <ele>329.897947</ele>
        <time>2022-06-16T17:10:33.013Z</time>
      </trkpt>
      <trkpt lat="45.77669" lon="3.1977">
        <ele>329.891113</ele>
        <time>2022-06-16T17:10:34.505Z</time>
      </trkpt>
      <trkpt lat="45.77678" lon="3.19782">
        <ele>329.882024</ele>
        <time>2022-06-16T17:10:36.655Z</time>
      </trkpt>
      <trkpt lat="45.77692" lon="3.19841">
        <ele>329.850245</ele>
        <time>2022-06-16T17:10:43.895Z</time>
      </trkpt>
      <trkpt lat="45.77704" lon="3.19862">
        <ele>329.836137</ele>
        <time>2022-06-16T17:10:47.110Z</time>
      </trkpt>
      <trkpt lat="45.7773" lon="3.19928">
        <ele>329.797034</ele>
        <time>2022-06-16T17:10:57.128Z</time>
      </trkpt>
      <trkpt lat="45.77784" lon="3.20034">
        <ele>330.288549</ele>
        <time>2022-06-16T17:11:14.767Z</time>
      </trkpt>
      <trkpt lat="45.77796" lon="3.20101">
        <ele>330.608564</ele>
        <time>2022-06-16T17:11:25.086Z</time>
      </trkpt>
      <trkpt lat="45.77788" lon="3.20201">
        <ele>331.129583</ele>
        <time>2022-06-16T17:11:40.874Z</time>
      </trkpt>
      <trkpt lat="45.77783" lon="3.20228">
        <ele>331.334338</ele>
        <time>2022-06-16T17:11:45.541Z</time>
      </trkpt>
      <trkpt lat="45.77771" lon="3.20243">
        <ele>331.506635</ele>
        <time>2022-06-16T17:11:49.220Z</time>
      </trkpt>
      <trkpt lat="45.77754" lon="3.20246">
        <ele>331.685398</ele>
        <time>2022-06-16T17:11:53.362Z</time>
      </trkpt>
      <trkpt lat="45.77704" lon="3.20256">
        <ele>332.213339</ele>
        <time>2022-06-16T17:12:04.660Z</time>
      </trkpt>
      <trkpt lat="45.77663" lon="3.20266">
        <ele>332.654956</ele>
        <time>2022-06-16T17:12:14.099Z</time>
      </trkpt>
      <trkpt lat="45.77645" lon="3.20272">
        <ele>332.844283</ele>
        <time>2022-06-16T17:12:18.394Z</time>
      </trkpt>
      <trkpt lat="45.7758" lon="3.20318">
        <ele>333.460925</ele>
        <time>2022-06-16T17:12:35.022Z</time>
      </trkpt>
      <trkpt lat="45.77549" lon="3.20353">
        <ele>333.790652</ele>
        <time>2022-06-16T17:12:43.810Z</time>
      </trkpt>
      <trkpt lat="45.77504" lon="3.20422">
        <ele>334.34479</ele>
        <time>2022-06-16T17:12:57.523Z</time>
      </trkpt>
      <trkpt lat="45.77494" lon="3.20447">
        <ele>334.408504</ele>
        <time>2022-06-16T17:13:01.499Z</time>
      </trkpt>
      <trkpt lat="45.77466" lon="3.20539">
        <ele>334.505363</ele>
        <time>2022-06-16T17:13:15.216Z</time>
      </trkpt>
      <trkpt lat="45.77448" lon="3.20636">
        <ele>334.601513</ele>
        <time>2022-06-16T17:13:27.375Z</time>
      </trkpt>
      <trkpt lat="45.77443" lon="3.20684">
        <ele>334.714116</ele>
        <time>2022-06-16T17:13:32.977Z</time>
      </trkpt>
      <trkpt lat="45.77435" lon="3.20696">
        <ele>334.80921</ele>
        <time>2022-06-16T17:13:34.878Z</time>
      </trkpt>
      <trkpt lat="45.77432" lon="3.20728">
        <ele>334.995803</ele>
        <time>2022-06-16T17:13:38.582Z</time>
      </trkpt>
      <trkpt lat="45.77444" lon="3.20748">
        <ele>335.148328</ele>
        <time>2022-06-16T17:13:41.912Z</time>
      </trkpt>
      <trkpt lat="45.77455" lon="3.20754">
        <ele>335.250993</ele>
        <time>2022-06-16T17:13:44.152Z</time>
      </trkpt>
      <trkpt lat="45.77471" lon="3.20789">
        <ele>335.497401</ele>
        <time>2022-06-16T17:13:50.256Z</time>
      </trkpt>
      <trkpt lat="45.77454" lon="3.20904">
        <ele>336.281878</ele>
        <time>2022-06-16T17:14:11.581Z</time>
      </trkpt>
      <trkpt lat="45.77423" lon="3.20966">
        <ele>337.868827</ele>
        <time>2022-06-16T17:14:26.711Z</time>
      </trkpt>
      <trkpt lat="45.77416" lon="3.20974">
        <ele>338.13138</ele>
        <time>2022-06-16T17:14:29.357Z</time>
      </trkpt>
      <trkpt lat="45.77385" lon="3.21025">
        <ele>339.542055</ele>
        <time>2022-06-16T17:14:44.548Z</time>
      </trkpt>
      <trkpt lat="45.77368" lon="3.21074">
        <ele>340.652944</ele>
        <time>2022-06-16T17:14:57.524Z</time>
      </trkpt>
      <trkpt lat="45.77351" lon="3.21175">
        <ele>343.448228</ele>
        <time>2022-06-16T17:15:25.296Z</time>
      </trkpt>
      <trkpt lat="45.7734" lon="3.21244">
        <ele>345.599055</ele>
        <time>2022-06-16T17:15:44.209Z</time>
      </trkpt>
      <trkpt lat="45.77327" lon="3.21334">
        <ele>348.398033</ele>
        <time>2022-06-16T17:16:08.993Z</time>
      </trkpt>
      <trkpt lat="45.77279" lon="3.21789">
        <ele>362.584441</ele>
        <time>2022-06-16T17:18:22.597Z</time>
      </trkpt>
      <trkpt lat="45.77278" lon="3.21826">
        <ele>363.546534</ele>
        <time>2022-06-16T17:18:30.155Z</time>
      </trkpt>
      <trkpt lat="45.77281" lon="3.21962">
        <ele>364.48566</ele>
        <time>2022-06-16T17:18:51.116Z</time>
      </trkpt>
      <trkpt lat="45.77285" lon="3.22072">
        <ele>364.082487</ele>
        <time>2022-06-16T17:19:02.828Z</time>
      </trkpt>
      <trkpt lat="45.77291" lon="3.22176">
        <ele>362.84681</ele>
        <time>2022-06-16T17:19:12.135Z</time>
      </trkpt>
      <trkpt lat="45.77292" lon="3.22198">
        <ele>362.332902</ele>
        <time>2022-06-16T17:19:14.031Z</time>
      </trkpt>
      <trkpt lat="45.77297" lon="3.2226">
        <ele>360.879263</ele>
        <time>2022-06-16T17:19:19.302Z</time>
      </trkpt>
      <trkpt lat="45.7732" lon="3.22374">
        <ele>358.114576</ele>
        <time>2022-06-16T17:19:29.193Z</time>
      </trkpt>
      <trkpt lat="45.77336" lon="3.22421">
        <ele>356.368188</ele>
        <time>2022-06-16T17:19:33.406Z</time>
      </trkpt>
      <trkpt lat="45.77381" lon="3.22514">
        <ele>352.296708</ele>
        <time>2022-06-16T17:19:42.153Z</time>
      </trkpt>
      <trkpt lat="45.77478" lon="3.22657">
        <ele>345.004647</ele>
        <time>2022-06-16T17:19:57.764Z</time>
      </trkpt>
      <trkpt lat="45.77509" lon="3.22719">
        <ele>342.19374</ele>
        <time>2022-06-16T17:20:03.631Z</time>
      </trkpt>
      <trkpt lat="45.77519" lon="3.2275">
        <ele>340.913862</ele>
        <time>2022-06-16T17:20:06.318Z</time>
      </trkpt>
      <trkpt lat="45.77534" lon="3.22792">
        <ele>339.183076</ele>
        <time>2022-06-16T17:20:09.987Z</time>
      </trkpt>
      <trkpt lat="45.77545" lon="3.22842">
        <ele>337.593397</ele>
        <time>2022-06-16T17:20:14.222Z</time>
      </trkpt>
      <trkpt lat="45.77559" lon="3.22943">
        <ele>334.599383</ele>
        <time>2022-06-16T17:20:22.615Z</time>
      </trkpt>
      <trkpt lat="45.7756" lon="3.23022">
        <ele>332.289929</ele>
        <time>2022-06-16T17:20:29.135Z</time>
      </trkpt>
      <trkpt lat="45.77553" lon="3.23088">
        <ele>330.401708</ele>
        <time>2022-06-16T17:20:34.665Z</time>
      </trkpt>
      <trkpt lat="45.7754" lon="3.23181">
        <ele>327.78459</ele>
        <time>2022-06-16T17:20:42.415Z</time>
      </trkpt>
      <trkpt lat="45.77504" lon="3.23405">
        <ele>322.147302</ele>
        <time>2022-06-16T17:21:01.132Z</time>
      </trkpt>
      <trkpt lat="45.77494" lon="3.23432">
        <ele>321.512485</ele>
        <time>2022-06-16T17:21:03.689Z</time>
      </trkpt>
      <trkpt lat="45.7749" lon="3.23437">
        <ele>321.351629</ele>
        <time>2022-06-16T17:21:04.328Z</time>
      </trkpt>
      <trkpt lat="45.77487" lon="3.23451">
        <ele>321.042514</ele>
        <time>2022-06-16T17:21:05.557Z</time>
      </trkpt>
      <trkpt lat="45.77491" lon="3.23465">
        <ele>320.719348</ele>
        <time>2022-06-16T17:21:06.887Z</time>
      </trkpt>
      <trkpt lat="45.77493" lon="3.23481">
        <ele>320.389187</ele>
        <time>2022-06-16T17:21:08.240Z</time>
      </trkpt>
      <trkpt lat="45.77474" lon="3.23637">
        <ele>319.991584</ele>
        <time>2022-06-16T17:21:24.615Z</time>
      </trkpt>
      <trkpt lat="45.77465" lon="3.23704">
        <ele>320.733907</ele>
        <time>2022-06-16T17:21:35.119Z</time>
      </trkpt>
      <trkpt lat="45.77458" lon="3.23751">
        <ele>321.272489</ele>
        <time>2022-06-16T17:21:43.952Z</time>
      </trkpt>
      <trkpt lat="45.77426" lon="3.2396">
        <ele>329.125928</ele>
        <time>2022-06-16T17:22:55.286Z</time>
      </trkpt>
      <trkpt lat="45.77424" lon="3.23975">
        <ele>329.803596</ele>
        <time>2022-06-16T17:23:00.671Z</time>
      </trkpt>
      <trkpt lat="45.77422" lon="3.23983">
        <ele>330.190206</ele>
        <time>2022-06-16T17:23:03.680Z</time>
      </trkpt>
      <trkpt lat="45.77415" lon="3.24024">
        <ele>332.067989</ele>
        <time>2022-06-16T17:23:19.415Z</time>
      </trkpt>
      <trkpt lat="45.77409" lon="3.24027">
        <ele>332.421215</ele>
        <time>2022-06-16T17:23:22.139Z</time>
      </trkpt>
      <trkpt lat="45.77402" lon="3.24051">
        <ele>333.570816</ele>
        <time>2022-06-16T17:23:32.521Z</time>
      </trkpt>
      <trkpt lat="45.77405" lon="3.24061">
        <ele>333.971219</ele>
        <time>2022-06-16T17:23:36.291Z</time>
      </trkpt>
      <trkpt lat="45.77418" lon="3.2407">
        <ele>334.757231</ele>
        <time>2022-06-16T17:23:43.533Z</time>
      </trkpt>
      <trkpt lat="45.77438" lon="3.24126">
        <ele>337.115729</ele>
        <time>2022-06-16T17:24:07.166Z</time>
      </trkpt>
      <trkpt lat="45.77549" lon="3.24424">
        <ele>347.407822</ele>
        <time>2022-06-16T17:25:36.091Z</time>
      </trkpt>
      <trkpt lat="45.77639" lon="3.2463">
        <ele>350.254483</ele>
        <time>2022-06-16T17:26:21.968Z</time>
      </trkpt>
      <trkpt lat="45.77666" lon="3.24677">
        <ele>350.617338</ele>
        <time>2022-06-16T17:26:28.974Z</time>
      </trkpt>
      <trkpt lat="45.77681" lon="3.24693">
        <ele>350.773895</ele>
        <time>2022-06-16T17:26:31.713Z</time>
      </trkpt>
      <trkpt lat="45.7772" lon="3.2472">
        <ele>349.550086</ele>
        <time>2022-06-16T17:26:37.569Z</time>
      </trkpt>
      <trkpt lat="45.7778" lon="3.24748">
        <ele>347.540188</ele>
        <time>2022-06-16T17:26:45.335Z</time>
      </trkpt>
      <trkpt lat="45.77826" lon="3.24778">
        <ele>345.966158</ele>
        <time>2022-06-16T17:26:51.170Z</time>
      </trkpt>
      <trkpt lat="45.77832" lon="3.24783">
        <ele>345.736813</ele>
        <time>2022-06-16T17:26:51.994Z</time>
      </trkpt>
      <trkpt lat="45.77863" lon="3.24816">
        <ele>344.211028</ele>
        <time>2022-06-16T17:26:56.373Z</time>
      </trkpt>
      <trkpt lat="45.77892" lon="3.24845">
        <ele>342.545615</ele>
        <time>2022-06-16T17:27:00.366Z</time>
      </trkpt>
      <trkpt lat="45.77898" lon="3.24849">
        <ele>342.222563</ele>
        <time>2022-06-16T17:27:01.141Z</time>
      </trkpt>
      <trkpt lat="45.77915" lon="3.24861">
        <ele>341.337115</ele>
        <time>2022-06-16T17:27:03.259Z</time>
      </trkpt>
      <trkpt lat="45.77937" lon="3.2487">
        <ele>340.248088</ele>
        <time>2022-06-16T17:27:05.860Z</time>
      </trkpt>
      <trkpt lat="45.77989" lon="3.2488">
        <ele>337.73945</ele>
        <time>2022-06-16T17:27:11.780Z</time>
      </trkpt>
      <trkpt lat="45.78029" lon="3.24872">
        <ele>336.157055</ele>
        <time>2022-06-16T17:27:16.448Z</time>
      </trkpt>
      <trkpt lat="45.7811" lon="3.24828">
        <ele>333.878479</ele>
        <time>2022-06-16T17:27:26.880Z</time>
      </trkpt>
      <trkpt lat="45.78129" lon="3.24819">
        <ele>333.348561</ele>
        <time>2022-06-16T17:27:29.499Z</time>
      </trkpt>
      <trkpt lat="45.78161" lon="3.24808">
        <ele>332.484377</ele>
        <time>2022-06-16T17:27:34.159Z</time>
      </trkpt>
      <trkpt lat="45.78186" lon="3.24807">
        <ele>331.849681</ele>
        <time>2022-06-16T17:27:37.732Z</time>
      </trkpt>
      <trkpt lat="45.78212" lon="3.2481">
        <ele>332.042842</ele>
        <time>2022-06-16T17:27:41.860Z</time>
      </trkpt>
      <trkpt lat="45.7825" lon="3.24826">
        <ele>332.33445</ele>
        <time>2022-06-16T17:27:49.640Z</time>
      </trkpt>
      <trkpt lat="45.78356" lon="3.24923">
        <ele>333.28018</ele>
        <time>2022-06-16T17:28:20.763Z</time>
      </trkpt>
      <trkpt lat="45.78412" lon="3.24987">
        <ele>333.893915</ele>
        <time>2022-06-16T17:28:37.552Z</time>
      </trkpt>
      <trkpt lat="45.78445" lon="3.2504">
        <ele>334.325476</ele>
        <time>2022-06-16T17:28:48.512Z</time>
      </trkpt>
      <trkpt lat="45.7851" lon="3.25166">
        <ele>334.567585</ele>
        <time>2022-06-16T17:29:08.832Z</time>
      </trkpt>
      <trkpt lat="45.78536" lon="3.25229">
        <ele>334.432695</ele>
        <time>2022-06-16T17:29:17.242Z</time>
      </trkpt>
      <trkpt lat="45.7854" lon="3.25241">
        <ele>334.407585</ele>
        <time>2022-06-16T17:29:18.769Z</time>
      </trkpt>
      <trkpt lat="45.78546" lon="3.25285">
        <ele>334.327213</ele>
        <time>2022-06-16T17:29:23.618Z</time>
      </trkpt>
      <trkpt lat="45.78542" lon="3.25297">
        <ele>334.302276</ele>
        <time>2022-06-16T17:29:25.071Z</time>
      </trkpt>
      <trkpt lat="45.78547" lon="3.25317">
        <ele>334.262811</ele>
        <time>2022-06-16T17:29:27.350Z</time>
      </trkpt>
      <trkpt lat="45.78553" lon="3.25323">
        <ele>334.214708</ele>
        <time>2022-06-16T17:29:28.618Z</time>
      </trkpt>
      <trkpt lat="45.78557" lon="3.25338">
        <ele>334.134808</ele>
        <time>2022-06-16T17:29:30.352Z</time>
      </trkpt>
      <trkpt lat="45.78561" lon="3.25361">
        <ele>334.019056</ele>
        <time>2022-06-16T17:29:32.807Z</time>
      </trkpt>
      <trkpt lat="45.78595" lon="3.25818">
        <ele>331.914853</ele>
        <time>2022-06-16T17:30:22.056Z</time>
      </trkpt>
      <trkpt lat="45.78623" lon="3.26152">
        <ele>331.009963</ele>
        <time>2022-06-16T17:31:01.801Z</time>
      </trkpt>
      <trkpt lat="45.78642" lon="3.26258">
        <ele>330.429385</ele>
        <time>2022-06-16T17:31:13.599Z</time>
      </trkpt>
      <trkpt lat="45.78683" lon="3.26357">
        <ele>329.613115</ele>
        <time>2022-06-16T17:31:24.815Z</time>
      </trkpt>
      <trkpt lat="45.78757" lon="3.26467">
        <ele>327.977108</ele>
        <time>2022-06-16T17:31:39.046Z</time>
      </trkpt>
      <trkpt lat="45.78789" lon="3.26524">
        <ele>327.280472</ele>
        <time>2022-06-16T17:31:46.125Z</time>
      </trkpt>
      <trkpt lat="45.78808" lon="3.26589">
        <ele>327.499332</ele>
        <time>2022-06-16T17:31:53.650Z</time>
      </trkpt>
      <trkpt lat="45.78808" lon="3.26611">
        <ele>327.567852</ele>
        <time>2022-06-16T17:31:56.302Z</time>
      </trkpt>
      <trkpt lat="45.78807" lon="3.26614">
        <ele>327.578193</ele>
        <time>2022-06-16T17:31:56.723Z</time>
      </trkpt>
      <trkpt lat="45.78809" lon="3.26633">
        <ele>327.638442</ele>
        <time>2022-06-16T17:31:59.261Z</time>
      </trkpt>
      <trkpt lat="45.78811" lon="3.26636">
        <ele>327.650779</ele>
        <time>2022-06-16T17:31:59.805Z</time>
      </trkpt>
      <trkpt lat="45.78819" lon="3.26688">
        <ele>327.817051</ele>
        <time>2022-06-16T17:32:07.828Z</time>
      </trkpt>
      <trkpt lat="45.78808" lon="3.26781">
        <ele>328.197682</ele>
        <time>2022-06-16T17:32:25.432Z</time>
      </trkpt>
      <trkpt lat="45.78763" lon="3.26958">
        <ele>329.940943</ele>
        <time>2022-06-16T17:33:00.538Z</time>
      </trkpt>
      <trkpt lat="45.78689" lon="3.27241">
        <ele>329.802415</ele>
        <time>2022-06-16T17:33:36.092Z</time>
      </trkpt>
      <trkpt lat="45.78665" lon="3.27341">
        <ele>328.666053</ele>
        <time>2022-06-16T17:33:45.995Z</time>
      </trkpt>
      <trkpt lat="45.78654" lon="3.27507">
        <ele>326.746088</ele>
        <time>2022-06-16T17:34:01.219Z</time>
      </trkpt>
      <trkpt lat="45.7864" lon="3.27801">
        <ele>324.798931</ele>
        <time>2022-06-16T17:34:31.242Z</time>
      </trkpt>
      <trkpt lat="45.78637" lon="3.27863">
        <ele>324.803485</ele>
        <time>2022-06-16T17:34:39.035Z</time>
      </trkpt>
      <trkpt lat="45.7863" lon="3.27994">
        <ele>324.813094</ele>
        <time>2022-06-16T17:34:56.770Z</time>
      </trkpt>
      <trkpt lat="45.78628" lon="3.28053">
        <ele>324.929752</ele>
        <time>2022-06-16T17:35:05.050Z</time>
      </trkpt>
      <trkpt lat="45.78626" lon="3.28074">
        <ele>325.002555</ele>
        <time>2022-06-16T17:35:08.257Z</time>
      </trkpt>
      <trkpt lat="45.78613" lon="3.28339">
        <ele>325.990957</ele>
        <time>2022-06-16T17:35:45.284Z</time>
      </trkpt>
      <trkpt lat="45.78611" lon="3.28357">
        <ele>326.081636</ele>
        <time>2022-06-16T17:35:47.708Z</time>
      </trkpt>
      <trkpt lat="45.786" lon="3.28573">
        <ele>327.217678</ele>
        <time>2022-06-16T17:36:20.528Z</time>
      </trkpt>
      <trkpt lat="45.78596" lon="3.28621">
        <ele>327.537736</ele>
        <time>2022-06-16T17:36:28.734Z</time>
      </trkpt>
      <trkpt lat="45.78596" lon="3.28658">
        <ele>327.788068</ele>
        <time>2022-06-16T17:36:34.742Z</time>
      </trkpt>
      <trkpt lat="45.78591" lon="3.28753">
        <ele>328.437126</ele>
        <time>2022-06-16T17:36:49.574Z</time>
      </trkpt>
      <trkpt lat="45.78589" lon="3.28796">
        <ele>328.704236</ele>
        <time>2022-06-16T17:36:56.186Z</time>
      </trkpt>
      <trkpt lat="45.78587" lon="3.28838">
        <ele>328.833694</ele>
        <time>2022-06-16T17:37:02.593Z</time>
      </trkpt>
      <trkpt lat="45.78568" lon="3.28861">
        <ele>328.944452</ele>
        <time>2022-06-16T17:37:07.522Z</time>
      </trkpt>
      <trkpt lat="45.7854" lon="3.2888">
        <ele>329.084116</ele>
        <time>2022-06-16T17:37:13.868Z</time>
      </trkpt>
      <trkpt lat="45.78525" lon="3.28898">
        <ele>329.170755</ele>
        <time>2022-06-16T17:37:17.905Z</time>
      </trkpt>
      <trkpt lat="45.78523" lon="3.2892">
        <ele>329.239115</ele>
        <time>2022-06-16T17:37:20.688Z</time>
      </trkpt>
      <trkpt lat="45.7851" lon="3.29009">
        <ele>329.50451</ele>
        <time>2022-06-16T17:37:32.347Z</time>
      </trkpt>
      <trkpt lat="45.78502" lon="3.29049">
        <ele>329.579146</ele>
        <time>2022-06-16T17:37:37.380Z</time>
      </trkpt>
      <trkpt lat="45.78464" lon="3.29173">
        <ele>329.823061</ele>
        <time>2022-06-16T17:37:55.827Z</time>
      </trkpt>
      <trkpt lat="45.78442" lon="3.29353">
        <ele>329.648746</ele>
        <time>2022-06-16T17:38:20.191Z</time>
      </trkpt>
      <trkpt lat="45.78425" lon="3.2952">
        <ele>328.903302</ele>
        <time>2022-06-16T17:38:38.379Z</time>
      </trkpt>
      <trkpt lat="45.78417" lon="3.29716">
        <ele>325.946792</ele>
        <time>2022-06-16T17:38:55.977Z</time>
      </trkpt>
      <trkpt lat="45.78401" lon="3.29928">
        <ele>322.356834</ele>
        <time>2022-06-16T17:39:14.352Z</time>
      </trkpt>
      <trkpt lat="45.78398" lon="3.29944">
        <ele>322.070873</ele>
        <time>2022-06-16T17:39:15.840Z</time>
      </trkpt>
      <trkpt lat="45.78386" lon="3.30025">
        <ele>320.816904</ele>
        <time>2022-06-16T17:39:23.451Z</time>
      </trkpt>
      <trkpt lat="45.78371" lon="3.30342">
        <ele>318.713291</ele>
        <time>2022-06-16T17:39:56.524Z</time>
      </trkpt>
      <trkpt lat="45.7837" lon="3.30361">
        <ele>318.642456</ele>
        <time>2022-06-16T17:39:58.550Z</time>
      </trkpt>
      <trkpt lat="45.78365" lon="3.30466">
        <ele>318.253285</ele>
        <time>2022-06-16T17:40:10.330Z</time>
      </trkpt>
      <trkpt lat="45.78339" lon="3.30598">
        <ele>318.121618</ele>
        <time>2022-06-16T17:40:26.426Z</time>
      </trkpt>
      <trkpt lat="45.78326" lon="3.30843">
        <ele>318.537836</ele>
        <time>2022-06-16T17:40:59.663Z</time>
      </trkpt>
      <trkpt lat="45.7832" lon="3.30866">
        <ele>318.630394</ele>
        <time>2022-06-16T17:41:03.261Z</time>
      </trkpt>
      <trkpt lat="45.78314" lon="3.30877">
        <ele>318.681712</ele>
        <time>2022-06-16T17:41:05.233Z</time>
      </trkpt>
      <trkpt lat="45.78297" lon="3.30906">
        <ele>318.823602</ele>
        <time>2022-06-16T17:41:10.770Z</time>
      </trkpt>
      <trkpt lat="45.78289" lon="3.30956">
        <ele>319.015495</ele>
        <time>2022-06-16T17:41:18.232Z</time>
      </trkpt>
      <trkpt lat="45.78288" lon="3.31002">
        <ele>319.188023</ele>
        <time>2022-06-16T17:41:24.924Z</time>
      </trkpt>
      <trkpt lat="45.78287" lon="3.31136">
        <ele>319.588052</ele>
        <time>2022-06-16T17:41:44.015Z</time>
      </trkpt>
      <trkpt lat="45.78287" lon="3.31161">
        <ele>319.660743</ele>
        <time>2022-06-16T17:41:47.522Z</time>
      </trkpt>
      <trkpt lat="45.78281" lon="3.31331">
        <ele>320.040738</ele>
        <time>2022-06-16T17:42:09.813Z</time>
      </trkpt>
      <trkpt lat="45.78204" lon="3.32179">
        <ele>320.98992</ele>
        <time>2022-06-16T17:43:59.493Z</time>
      </trkpt>
      <trkpt lat="45.7819" lon="3.32279">
        <ele>321.214364</ele>
        <time>2022-06-16T17:44:13.920Z</time>
      </trkpt>
      <trkpt lat="45.78093" lon="3.32743">
        <ele>322.764681</ele>
        <time>2022-06-16T17:45:22.412Z</time>
      </trkpt>
      <trkpt lat="45.78076" lon="3.32846">
        <ele>322.878675</ele>
        <time>2022-06-16T17:45:36.199Z</time>
      </trkpt>
      <trkpt lat="45.7807" lon="3.32926">
        <ele>322.840917</ele>
        <time>2022-06-16T17:45:45.897Z</time>
      </trkpt>
      <trkpt lat="45.78072" lon="3.32975">
        <ele>322.817931</ele>
        <time>2022-06-16T17:45:51.689Z</time>
      </trkpt>
      <trkpt lat="45.78078" lon="3.33108">
        <ele>322.649036</ele>
        <time>2022-06-16T17:46:07.111Z</time>
      </trkpt>
      <trkpt lat="45.7807" lon="3.33294">
        <ele>322.23385</ele>
        <time>2022-06-16T17:46:28.278Z</time>
      </trkpt>
      <trkpt lat="45.78041" lon="3.33716">
        <ele>321.738081</ele>
        <time>2022-06-16T17:47:18.045Z</time>
      </trkpt>
      <trkpt lat="45.78017" lon="3.33992">
        <ele>321.994825</ele>
        <time>2022-06-16T17:47:55.672Z</time>
      </trkpt>
      <trkpt lat="45.77991" lon="3.34286">
        <ele>322.177845</ele>
        <time>2022-06-16T17:48:32.505Z</time>
      </trkpt>
      <trkpt lat="45.77993" lon="3.34342">
        <ele>322.273161</ele>
        <time>2022-06-16T17:48:39.307Z</time>
      </trkpt>
      <trkpt lat="45.78012" lon="3.34496">
        <ele>323.30834</ele>
        <time>2022-06-16T17:49:00.236Z</time>
      </trkpt>
      <trkpt lat="45.78024" lon="3.34637">
        <ele>325.380538</ele>
        <time>2022-06-16T17:49:27.032Z</time>
      </trkpt>
      <trkpt lat="45.78013" lon="3.35098">
        <ele>339.432551</ele>
        <time>2022-06-16T17:51:37.078Z</time>
      </trkpt>
      <trkpt lat="45.7801" lon="3.35239">
        <ele>342.557521</ele>
        <time>2022-06-16T17:52:15.006Z</time>
      </trkpt>
      <trkpt lat="45.77982" lon="3.35427">
        <ele>344.840483</ele>
        <time>2022-06-16T17:52:50.797Z</time>
      </trkpt>
      <trkpt lat="45.77919" lon="3.35805">
        <ele>341.413641</ele>
        <time>2022-06-16T17:53:27.258Z</time>
      </trkpt>
      <trkpt lat="45.77908" lon="3.35835">
        <ele>340.996514</ele>
        <time>2022-06-16T17:53:30.328Z</time>
      </trkpt>
      <trkpt lat="45.77904" lon="3.35838">
        <ele>340.906835</ele>
        <time>2022-06-16T17:53:30.997Z</time>
      </trkpt>
      <trkpt lat="45.779" lon="3.35858">
        <ele>340.652229</ele>
        <time>2022-06-16T17:53:32.917Z</time>
      </trkpt>
      <trkpt lat="45.77905" lon="3.35866">
        <ele>340.520195</ele>
        <time>2022-06-16T17:53:33.963Z</time>
      </trkpt>
      <trkpt lat="45.77901" lon="3.35907">
        <ele>340.036793</ele>
        <time>2022-06-16T17:53:37.813Z</time>
      </trkpt>
      <trkpt lat="45.77891" lon="3.35954">
        <ele>339.452235</ele>
        <time>2022-06-16T17:53:42.535Z</time>
      </trkpt>
      <trkpt lat="45.77874" lon="3.36">
        <ele>338.844374</ele>
        <time>2022-06-16T17:53:47.529Z</time>
      </trkpt>
      <trkpt lat="45.77796" lon="3.36179">
        <ele>335.911953</ele>
        <time>2022-06-16T17:54:07.376Z</time>
      </trkpt>
      <trkpt lat="45.77756" lon="3.36274">
        <ele>334.176752</ele>
        <time>2022-06-16T17:54:17.235Z</time>
      </trkpt>
      <trkpt lat="45.77743" lon="3.36334">
        <ele>333.073883</ele>
        <time>2022-06-16T17:54:22.668Z</time>
      </trkpt>
      <trkpt lat="45.77738" lon="3.36378">
        <ele>332.202876</ele>
        <time>2022-06-16T17:54:26.504Z</time>
      </trkpt>
      <trkpt lat="45.77742" lon="3.36447">
        <ele>330.858095</ele>
        <time>2022-06-16T17:54:32.415Z</time>
      </trkpt>
      <trkpt lat="45.77758" lon="3.36549">
        <ele>328.827224</ele>
        <time>2022-06-16T17:54:41.401Z</time>
      </trkpt>
      <trkpt lat="45.77801" lon="3.3684">
        <ele>324.862601</ele>
        <time>2022-06-16T17:55:08.800Z</time>
      </trkpt>
      <trkpt lat="45.77807" lon="3.36929">
        <ele>324.294436</ele>
        <time>2022-06-16T17:55:17.992Z</time>
      </trkpt>
      <trkpt lat="45.778" lon="3.37027">
        <ele>323.670168</ele>
        <time>2022-06-16T17:55:28.637Z</time>
      </trkpt>
      <trkpt lat="45.77761" lon="3.37305">
        <ele>323.183935</ele>
        <time>2022-06-16T17:56:02.563Z</time>
      </trkpt>
      <trkpt lat="45.7776" lon="3.37398">
        <ele>323.305605</ele>
        <time>2022-06-16T17:56:14.451Z</time>
      </trkpt>
      <trkpt lat="45.77769" lon="3.37464">
        <ele>323.41828</ele>
        <time>2022-06-16T17:56:23.364Z</time>
      </trkpt>
      <trkpt lat="45.77789" lon="3.37598">
        <ele>323.66102</ele>
        <time>2022-06-16T17:56:41.940Z</time>
      </trkpt>
      <trkpt lat="45.77788" lon="3.37701">
        <ele>323.882908</ele>
        <time>2022-06-16T17:56:56.021Z</time>
      </trkpt>
      <trkpt lat="45.77782" lon="3.37756">
        <ele>324.003587</ele>
        <time>2022-06-16T17:57:03.468Z</time>
      </trkpt>
      <trkpt lat="45.77752" lon="3.37879">
        <ele>324.234041</ele>
        <time>2022-06-16T17:57:20.626Z</time>
      </trkpt>
      <trkpt lat="45.77721" lon="3.37947">
        <ele>324.340305</ele>
        <time>2022-06-16T17:57:31.303Z</time>
      </trkpt>
      <trkpt lat="45.77685" lon="3.38009">
        <ele>324.443679</ele>
        <time>2022-06-16T17:57:41.545Z</time>
      </trkpt>
      <trkpt lat="45.77561" lon="3.38158">
        <ele>324.897768</ele>
        <time>2022-06-16T17:58:12.083Z</time>
      </trkpt>
      <trkpt lat="45.77541" lon="3.38199">
        <ele>325.003224</ele>
        <time>2022-06-16T17:58:19.143Z</time>
      </trkpt>
      <trkpt lat="45.77526" lon="3.38244">
        <ele>325.149712</ele>
        <time>2022-06-16T17:58:26.104Z</time>
      </trkpt>
      <trkpt lat="45.77525" lon="3.38278">
        <ele>325.262942</ele>
        <time>2022-06-16T17:58:30.990Z</time>
      </trkpt>
      <trkpt lat="45.77523" lon="3.38303">
        <ele>325.343917</ele>
        <time>2022-06-16T17:58:34.392Z</time>
      </trkpt>
      <trkpt lat="45.77524" lon="3.38344">
        <ele>325.481077</ele>
        <time>2022-06-16T17:58:40.221Z</time>
      </trkpt>
      <trkpt lat="45.77527" lon="3.38384">
        <ele>325.611266</ele>
        <time>2022-06-16T17:58:45.854Z</time>
      </trkpt>
      <trkpt lat="45.7756" lon="3.38551">
        <ele>326.176637</ele>
        <time>2022-06-16T17:59:10.058Z</time>
      </trkpt>
      <trkpt lat="45.77569" lon="3.38664">
        <ele>326.539536</ele>
        <time>2022-06-16T17:59:25.498Z</time>
      </trkpt>
      <trkpt lat="45.77462" lon="3.39705">
        <ele>332.08604</ele>
        <time>2022-06-16T18:02:01.732Z</time>
      </trkpt>
      <trkpt lat="45.77457" lon="3.39735">
        <ele>332.281777</ele>
        <time>2022-06-16T18:02:07.140Z</time>
      </trkpt>
      <trkpt lat="45.77456" lon="3.39744">
        <ele>332.394215</ele>
        <time>2022-06-16T18:02:08.844Z</time>
      </trkpt>
      <trkpt lat="45.77441" lon="3.39774">
        <ele>332.847667</ele>
        <time>2022-06-16T18:02:15.543Z</time>
      </trkpt>
      <trkpt lat="45.77388" lon="3.39822">
        <ele>333.951521</ele>
        <time>2022-06-16T18:02:31.972Z</time>
      </trkpt>
      <trkpt lat="45.77374" lon="3.3984">
        <ele>334.283374</ele>
        <time>2022-06-16T18:02:36.839Z</time>
      </trkpt>
      <trkpt lat="45.77358" lon="3.39864">
        <ele>334.699665</ele>
        <time>2022-06-16T18:02:43.190Z</time>
      </trkpt>
      <trkpt lat="45.77343" lon="3.39887">
        <ele>335.096339</ele>
        <time>2022-06-16T18:02:49.329Z</time>
      </trkpt>
      <trkpt lat="45.77266" lon="3.40053">
        <ele>337.909646</ele>
        <time>2022-06-16T18:03:27.649Z</time>
      </trkpt>
      <trkpt lat="45.77261" lon="3.40065">
        <ele>338.117202</ele>
        <time>2022-06-16T18:03:30.486Z</time>
      </trkpt>
      <trkpt lat="45.77245" lon="3.40108">
        <ele>338.81705</ele>
        <time>2022-06-16T18:03:39.736Z</time>
      </trkpt>
      <trkpt lat="45.77228" lon="3.40177">
        <ele>339.882792</ele>
        <time>2022-06-16T18:03:54.232Z</time>
      </trkpt>
      <trkpt lat="45.77169" lon="3.40498">
        <ele>343.92375</ele>
        <time>2022-06-16T18:04:58.741Z</time>
      </trkpt>
      <trkpt lat="45.77146" lon="3.40627">
        <ele>344.989441</ele>
        <time>2022-06-16T18:05:17.846Z</time>
      </trkpt>
      <trkpt lat="45.7711" lon="3.40822">
        <ele>344.496454</ele>
        <time>2022-06-16T18:05:39.894Z</time>
      </trkpt>
      <trkpt lat="45.77104" lon="3.4091">
        <ele>344.300935</ele>
        <time>2022-06-16T18:05:49.819Z</time>
      </trkpt>
      <trkpt lat="45.77094" lon="3.40978">
        <ele>344.222273</ele>
        <time>2022-06-16T18:05:58.189Z</time>
      </trkpt>
      <trkpt lat="45.77083" lon="3.40994">
        <ele>344.196029</ele>
        <time>2022-06-16T18:06:00.571Z</time>
      </trkpt>
      <trkpt lat="45.77079" lon="3.40991">
        <ele>344.1892</ele>
        <time>2022-06-16T18:06:01.323Z</time>
      </trkpt>
      <trkpt lat="45.77063" lon="3.40982">
        <ele>344.161164</ele>
        <time>2022-06-16T18:06:04.705Z</time>
      </trkpt>
      <trkpt lat="45.76999" lon="3.40922">
        <ele>344.031121</ele>
        <time>2022-06-16T18:06:18.115Z</time>
      </trkpt>
      <trkpt lat="45.76975" lon="3.40885">
        <ele>343.819266</ele>
        <time>2022-06-16T18:06:24.661Z</time>
      </trkpt>
      <trkpt lat="45.76961" lon="3.40909">
        <ele>343.691497</ele>
        <time>2022-06-16T18:06:29.691Z</time>
      </trkpt>
      <trkpt lat="45.76956" lon="3.40938">
        <ele>343.566833</ele>
        <time>2022-06-16T18:06:34.597Z</time>
      </trkpt>
      <trkpt lat="45.76961" lon="3.41069">
        <ele>343.019403</ele>
        <time>2022-06-16T18:06:53.479Z</time>
      </trkpt>
      <trkpt lat="45.77004" lon="3.41073">
        <ele>342.800407</ele>
        <time>2022-06-16T18:07:02.535Z</time>
      </trkpt>
      <trkpt lat="45.77035" lon="3.41118">
        <ele>342.589437</ele>
        <time>2022-06-16T18:07:11.915Z</time>
      </trkpt>
      <trkpt lat="45.77031" lon="3.41132">
        <ele>342.538288</ele>
        <time>2022-06-16T18:07:13.619Z</time>
      </trkpt>
      <trkpt lat="45.76932" lon="3.41304">
        <ele>342.544857</ele>
        <time>2022-06-16T18:07:40.344Z</time>
      </trkpt>
      <trkpt lat="45.76451" lon="3.41799">
        <ele>346.601498</ele>
        <time>2022-06-16T18:09:48.785Z</time>
      </trkpt>
      <trkpt lat="45.76384" lon="3.41839">
        <ele>347.023535</ele>
        <time>2022-06-16T18:10:03.186Z</time>
      </trkpt>
      <trkpt lat="45.76371" lon="3.41922">
        <ele>347.122921</ele>
        <time>2022-06-16T18:10:14.092Z</time>
      </trkpt>
      <trkpt lat="45.76332" lon="3.42006">
        <ele>347.242221</ele>
        <time>2022-06-16T18:10:26.889Z</time>
      </trkpt>
      <trkpt lat="45.76349" lon="3.42035">
        <ele>347.287611</ele>
        <time>2022-06-16T18:10:31.780Z</time>
      </trkpt>
      <trkpt lat="45.76359" lon="3.4205">
        <ele>347.312553</ele>
        <time>2022-06-16T18:10:34.510Z</time>
      </trkpt>
      <trkpt lat="45.76421" lon="3.42156">
        <ele>347.551647</ele>
        <time>2022-06-16T18:10:52.410Z</time>
      </trkpt>
      <trkpt lat="45.76436" lon="3.42209">
        <ele>347.65122</ele>
        <time>2022-06-16T18:10:59.923Z</time>
      </trkpt>
      <trkpt lat="45.76441" lon="3.42427">
        <ele>348.764736</ele>
        <time>2022-06-16T18:11:30.577Z</time>
      </trkpt>
      <trkpt lat="45.76421" lon="3.42534">
        <ele>349.549677</ele>
        <time>2022-06-16T18:11:49.185Z</time>
      </trkpt>
      <trkpt lat="45.76354" lon="3.42775">
        <ele>353.485852</ele>
        <time>2022-06-16T18:12:41.102Z</time>
      </trkpt>
      <trkpt lat="45.76351" lon="3.42844">
        <ele>354.653409</ele>
        <time>2022-06-16T18:12:56.090Z</time>
      </trkpt>
      <trkpt lat="45.76359" lon="3.42932">
        <ele>356.135342</ele>
        <time>2022-06-16T18:13:14.407Z</time>
      </trkpt>
      <trkpt lat="45.76383" lon="3.43005">
        <ele>357.49631</ele>
        <time>2022-06-16T18:13:30.883Z</time>
      </trkpt>
      <trkpt lat="45.76467" lon="3.43266">
        <ele>361.404274</ele>
        <time>2022-06-16T18:14:25.408Z</time>
      </trkpt>
      <trkpt lat="45.76511" lon="3.43326">
        <ele>362.489581</ele>
        <time>2022-06-16T18:14:40.370Z</time>
      </trkpt>
      <trkpt lat="45.76533" lon="3.43356">
        <ele>363.03266</ele>
        <time>2022-06-16T18:14:48.110Z</time>
      </trkpt>
      <trkpt lat="45.76568" lon="3.43443">
        <ele>364.270044</ele>
        <time>2022-06-16T18:15:06.337Z</time>
      </trkpt>
      <trkpt lat="45.76617" lon="3.43663">
        <ele>368.206173</ele>
        <time>2022-06-16T18:15:53.736Z</time>
      </trkpt>
      <trkpt lat="45.76675" lon="3.43789">
        <ele>371.369556</ele>
        <time>2022-06-16T18:16:27.905Z</time>
      </trkpt>
      <trkpt lat="45.76722" lon="3.43928">
        <ele>374.641438</ele>
        <time>2022-06-16T18:17:04.834Z</time>
      </trkpt>
      <trkpt lat="45.76722" lon="3.43979">
        <ele>375.367815</ele>
        <time>2022-06-16T18:17:16.003Z</time>
      </trkpt>
      <trkpt lat="45.76722" lon="3.44026">
        <ele>376.037113</ele>
        <time>2022-06-16T18:17:25.894Z</time>
      </trkpt>
      <trkpt lat="45.76701" lon="3.44134">
        <ele>377.632923</ele>
        <time>2022-06-16T18:17:46.220Z</time>
      </trkpt>
      <trkpt lat="45.76701" lon="3.44216">
        <ele>378.242586</ele>
        <time>2022-06-16T18:17:58.689Z</time>
      </trkpt>
      <trkpt lat="45.7671" lon="3.44279">
        <ele>378.41415</ele>
        <time>2022-06-16T18:18:06.522Z</time>
      </trkpt>
      <trkpt lat="45.76712" lon="3.44358">
        <ele>378.623737</ele>
        <time>2022-06-16T18:18:16.037Z</time>
      </trkpt>
      <trkpt lat="45.76714" lon="3.44417">
        <ele>378.78217</ele>
        <time>2022-06-16T18:18:23.908Z</time>
      </trkpt>
      <trkpt lat="45.76746" lon="3.44654">
        <ele>380.405704</ele>
        <time>2022-06-16T18:19:01.600Z</time>
      </trkpt>
      <trkpt lat="45.76747" lon="3.44737">
        <ele>381.429739</ele>
        <time>2022-06-16T18:19:16.127Z</time>
      </trkpt>
      <trkpt lat="45.76774" lon="3.449">
        <ele>383.859143</ele>
        <time>2022-06-16T18:19:47.578Z</time>
      </trkpt>
      <trkpt lat="45.76778" lon="3.45093">
        <ele>388.795809</ele>
        <time>2022-06-16T18:20:35.004Z</time>
      </trkpt>
      <trkpt lat="45.76778" lon="3.45099">
        <ele>388.969772</ele>
        <time>2022-06-16T18:20:36.749Z</time>
      </trkpt>
      <trkpt lat="45.76782" lon="3.45174">
        <ele>391.045919</ele>
        <time>2022-06-16T18:20:58.569Z</time>
      </trkpt>
      <trkpt lat="45.7682" lon="3.45378">
        <ele>397.215027</ele>
        <time>2022-06-16T18:21:57.715Z</time>
      </trkpt>
      <trkpt lat="45.76826" lon="3.45448">
        <ele>399.072474</ele>
        <time>2022-06-16T18:22:14.265Z</time>
      </trkpt>
      <trkpt lat="45.76827" lon="3.45537">
        <ele>399.750393</ele>
        <time>2022-06-16T18:22:32.621Z</time>
      </trkpt>
      <trkpt lat="45.76832" lon="3.45728">
        <ele>400.598366</ele>
        <time>2022-06-16T18:22:57.913Z</time>
      </trkpt>
      <trkpt lat="45.7685" lon="3.45969">
        <ele>397.790898</ele>
        <time>2022-06-16T18:23:20.032Z</time>
      </trkpt>
      <trkpt lat="45.76855" lon="3.45985">
        <ele>397.505423</ele>
        <time>2022-06-16T18:23:21.601Z</time>
      </trkpt>
      <trkpt lat="45.76941" lon="3.46188">
        <ele>393.790686</ele>
        <time>2022-06-16T18:23:42.709Z</time>
      </trkpt>
      <trkpt lat="45.77002" lon="3.46326">
        <ele>392.513561</ele>
        <time>2022-06-16T18:23:58.341Z</time>
      </trkpt>
      <trkpt lat="45.77016" lon="3.46379">
        <ele>392.070183</ele>
        <time>2022-06-16T18:24:04.818Z</time>
      </trkpt>
      <trkpt lat="45.77031" lon="3.46471">
        <ele>392.672025</ele>
        <time>2022-06-16T18:24:17.983Z</time>
      </trkpt>
      <trkpt lat="45.77033" lon="3.46482">
        <ele>392.802885</ele>
        <time>2022-06-16T18:24:19.944Z</time>
      </trkpt>
      <trkpt lat="45.77054" lon="3.46646">
        <ele>394.659578</ele>
        <time>2022-06-16T18:24:51.961Z</time>
      </trkpt>
      <trkpt lat="45.7704" lon="3.4679">
        <ele>397.272228</ele>
        <time>2022-06-16T18:25:24.409Z</time>
      </trkpt>
      <trkpt lat="45.77048" lon="3.46889">
        <ele>399.118705</ele>
        <time>2022-06-16T18:25:46.145Z</time>
      </trkpt>
      <trkpt lat="45.77061" lon="3.47108">
        <ele>402.360555</ele>
        <time>2022-06-16T18:26:28.841Z</time>
      </trkpt>
      <trkpt lat="45.77047" lon="3.4721">
        <ele>403.733317</ele>
        <time>2022-06-16T18:26:47.898Z</time>
      </trkpt>
      <trkpt lat="45.77048" lon="3.47233">
        <ele>404.002818</ele>
        <time>2022-06-16T18:26:52.185Z</time>
      </trkpt>
      <trkpt lat="45.77051" lon="3.47306">
        <ele>404.841311</ele>
        <time>2022-06-16T18:27:05.021Z</time>
      </trkpt>
      <trkpt lat="45.77034" lon="3.47362">
        <ele>405.558184</ele>
        <time>2022-06-16T18:27:15.772Z</time>
      </trkpt>
      <trkpt lat="45.77026" lon="3.47409">
        <ele>406.116104</ele>
        <time>2022-06-16T18:27:24.238Z</time>
      </trkpt>
      <trkpt lat="45.77027" lon="3.47435">
        <ele>406.453643</ele>
        <time>2022-06-16T18:27:29.050Z</time>
      </trkpt>
      <trkpt lat="45.77028" lon="3.47476">
        <ele>407.004076</ele>
        <time>2022-06-16T18:27:36.450Z</time>
      </trkpt>
      <trkpt lat="45.77036" lon="3.47608">
        <ele>408.798484</ele>
        <time>2022-06-16T18:28:00.827Z</time>
      </trkpt>
      <trkpt lat="45.77033" lon="3.47637">
        <ele>409.194027</ele>
        <time>2022-06-16T18:28:06.139Z</time>
      </trkpt>
      <trkpt lat="45.7698" lon="3.47748">
        <ele>411.397794</ele>
        <time>2022-06-16T18:28:34.863Z</time>
      </trkpt>
      <trkpt lat="45.76978" lon="3.47779">
        <ele>411.958742</ele>
        <time>2022-06-16T18:28:41.998Z</time>
      </trkpt>
      <trkpt lat="45.76989" lon="3.47859">
        <ele>413.39542</ele>
        <time>2022-06-16T18:28:59.455Z</time>
      </trkpt>
      <trkpt lat="45.76969" lon="3.47936">
        <ele>414.501997</ele>
        <time>2022-06-16T18:29:16.074Z</time>
      </trkpt>
      <trkpt lat="45.7697" lon="3.47964">
        <ele>414.718055</ele>
        <time>2022-06-16T18:29:20.910Z</time>
      </trkpt>
      <trkpt lat="45.76989" lon="3.48106">
        <ele>415.823737</ele>
        <time>2022-06-16T18:29:46.609Z</time>
      </trkpt>
      <trkpt lat="45.76989" lon="3.48137">
        <ele>416.058882</ele>
        <time>2022-06-16T18:29:50.286Z</time>
      </trkpt>
      <trkpt lat="45.76985" lon="3.4817">
        <ele>416.103729</ele>
        <time>2022-06-16T18:29:53.524Z</time>
      </trkpt>
      <trkpt lat="45.76975" lon="3.48202">
        <ele>415.799844</ele>
        <time>2022-06-16T18:29:56.906Z</time>
      </trkpt>
      <trkpt lat="45.76946" lon="3.48241">
        <ele>415.301624</ele>
        <time>2022-06-16T18:30:02.463Z</time>
      </trkpt>
      <trkpt lat="45.76937" lon="3.48294">
        <ele>414.825991</ele>
        <time>2022-06-16T18:30:07.814Z</time>
      </trkpt>
      <trkpt lat="45.76931" lon="3.48364">
        <ele>414.209656</ele>
        <time>2022-06-16T18:30:14.521Z</time>
      </trkpt>
      <trkpt lat="45.76887" lon="3.48519">
        <ele>411.912646</ele>
        <time>2022-06-16T18:30:30.902Z</time>
      </trkpt>
      <trkpt lat="45.76899" lon="3.48548">
        <ele>411.417362</ele>
        <time>2022-06-16T18:30:34.080Z</time>
      </trkpt>
      <trkpt lat="45.76897" lon="3.48573">
        <ele>411.051354</ele>
        <time>2022-06-16T18:30:36.374Z</time>
      </trkpt>
      <trkpt lat="45.76885" lon="3.4859">
        <ele>410.694919</ele>
        <time>2022-06-16T18:30:38.479Z</time>
      </trkpt>
      <trkpt lat="45.76863" lon="3.48599">
        <ele>410.228677</ele>
        <time>2022-06-16T18:30:41.114Z</time>
      </trkpt>
      <trkpt lat="45.76852" lon="3.48612">
        <ele>409.42205</ele>
        <time>2022-06-16T18:30:42.927Z</time>
      </trkpt>
      <trkpt lat="45.76847" lon="3.48642">
        <ele>408.184432</ele>
        <time>2022-06-16T18:30:45.340Z</time>
      </trkpt>
      <trkpt lat="45.76852" lon="3.48663">
        <ele>407.256876</ele>
        <time>2022-06-16T18:30:47.157Z</time>
      </trkpt>
      <trkpt lat="45.76868" lon="3.48694">
        <ele>405.652393</ele>
        <time>2022-06-16T18:30:50.200Z</time>
      </trkpt>
      <trkpt lat="45.76902" lon="3.48727">
        <ele>403.211353</ele>
        <time>2022-06-16T18:30:54.713Z</time>
      </trkpt>
      <trkpt lat="45.76905" lon="3.48756">
        <ele>402.023056</ele>
        <time>2022-06-16T18:30:56.843Z</time>
      </trkpt>
      <trkpt lat="45.76893" lon="3.48779">
        <ele>400.83288</ele>
        <time>2022-06-16T18:30:59.005Z</time>
      </trkpt>
      <trkpt lat="45.76861" lon="3.48814">
        <ele>398.167477</ele>
        <time>2022-06-16T18:31:03.300Z</time>
      </trkpt>
      <trkpt lat="45.76753" lon="3.48894">
        <ele>389.459442</ele>
        <time>2022-06-16T18:31:16.135Z</time>
      </trkpt>
      <trkpt lat="45.76724" lon="3.48897">
        <ele>387.353404</ele>
        <time>2022-06-16T18:31:19.369Z</time>
      </trkpt>
      <trkpt lat="45.76674" lon="3.48918">
        <ele>385.583536</ele>
        <time>2022-06-16T18:31:25.224Z</time>
      </trkpt>
      <trkpt lat="45.76614" lon="3.4896">
        <ele>383.959968</ele>
        <time>2022-06-16T18:31:33.424Z</time>
      </trkpt>
      <trkpt lat="45.76504" lon="3.48995">
        <ele>382.704577</ele>
        <time>2022-06-16T18:31:53.950Z</time>
      </trkpt>
      <trkpt lat="45.76484" lon="3.49024">
        <ele>383.053683</ele>
        <time>2022-06-16T18:32:00.555Z</time>
      </trkpt>
      <trkpt lat="45.7648" lon="3.49051">
        <ele>383.284539</ele>
        <time>2022-06-16T18:32:04.450Z</time>
      </trkpt>
      <trkpt lat="45.76487" lon="3.49072">
        <ele>383.481498</ele>
        <time>2022-06-16T18:32:08.935Z</time>
      </trkpt>
      <trkpt lat="45.76496" lon="3.49083">
        <ele>383.629552</ele>
        <time>2022-06-16T18:32:11.558Z</time>
      </trkpt>
      <trkpt lat="45.76516" lon="3.491">
        <ele>383.915063</ele>
        <time>2022-06-16T18:32:18.681Z</time>
      </trkpt>
      <trkpt lat="45.76561" lon="3.49117">
        <ele>384.49463</ele>
        <time>2022-06-16T18:32:30.993Z</time>
      </trkpt>
      <trkpt lat="45.76627" lon="3.49169">
        <ele>385.68077</ele>
        <time>2022-06-16T18:32:52.145Z</time>
      </trkpt>
      <trkpt lat="45.76637" lon="3.49186">
        <ele>385.929747</ele>
        <time>2022-06-16T18:32:56.424Z</time>
      </trkpt>
      <trkpt lat="45.76642" lon="3.49197">
        <ele>386.078993</ele>
        <time>2022-06-16T18:32:58.427Z</time>
      </trkpt>
      <trkpt lat="45.76643" lon="3.49246">
        <ele>386.617305</ele>
        <time>2022-06-16T18:33:04.946Z</time>
      </trkpt>
      <trkpt lat="45.7665" lon="3.49261">
        <ele>386.806496</ele>
        <time>2022-06-16T18:33:07.117Z</time>
      </trkpt>
      <trkpt lat="45.76663" lon="3.49271">
        <ele>387.041393</ele>
        <time>2022-06-16T18:33:12.355Z</time>
      </trkpt>
      <trkpt lat="45.76678" lon="3.49271">
        <ele>387.340491</ele>
        <time>2022-06-16T18:33:15.022Z</time>
      </trkpt>
      <trkpt lat="45.76748" lon="3.49226">
        <ele>390.020217</ele>
        <time>2022-06-16T18:33:34.948Z</time>
      </trkpt>
      <trkpt lat="45.76765" lon="3.49238">
        <ele>390.708743</ele>
        <time>2022-06-16T18:33:40.667Z</time>
      </trkpt>
      <trkpt lat="45.76772" lon="3.49257">
        <ele>391.21714</ele>
        <time>2022-06-16T18:33:44.653Z</time>
      </trkpt>
      <trkpt lat="45.7677" lon="3.49283">
        <ele>391.840284</ele>
        <time>2022-06-16T18:33:52.210Z</time>
      </trkpt>
      <trkpt lat="45.76756" lon="3.49315">
        <ele>392.765032</ele>
        <time>2022-06-16T18:34:03.722Z</time>
      </trkpt>
      <trkpt lat="45.76737" lon="3.49352">
        <ele>394.336626</ele>
        <time>2022-06-16T18:34:20.516Z</time>
      </trkpt>
      <trkpt lat="45.76696" lon="3.494">
        <ele>398.700351</ele>
        <time>2022-06-16T18:34:50.150Z</time>
      </trkpt>
      <trkpt lat="45.76679" lon="3.49445">
        <ele>401.60464</ele>
        <time>2022-06-16T18:35:11.708Z</time>
      </trkpt>
      <trkpt lat="45.76663" lon="3.49514">
        <ele>405.8037</ele>
        <time>2022-06-16T18:35:42.584Z</time>
      </trkpt>
      <trkpt lat="45.76643" lon="3.49563">
        <ele>408.96164</ele>
        <time>2022-06-16T18:36:05.723Z</time>
      </trkpt>
      <trkpt lat="45.76585" lon="3.49641">
        <ele>414.723997</ele>
        <time>2022-06-16T18:36:52.701Z</time>
      </trkpt>
      <trkpt lat="45.76546" lon="3.49724">
        <ele>419.83144</ele>
        <time>2022-06-16T18:37:26.191Z</time>
      </trkpt>
      <trkpt lat="45.76517" lon="3.49744">
        <ele>422.014304</ele>
        <time>2022-06-16T18:37:40.003Z</time>
      </trkpt>
      <trkpt lat="45.76505" lon="3.49746">
        <ele>422.75771</ele>
        <time>2022-06-16T18:37:46.237Z</time>
      </trkpt>
      <trkpt lat="45.76494" lon="3.49741">
        <ele>423.421641</ele>
        <time>2022-06-16T18:37:50.508Z</time>
      </trkpt>
      <trkpt lat="45.76475" lon="3.49717">
        <ele>424.904769</ele>
        <time>2022-06-16T18:38:02.614Z</time>
      </trkpt>
      <trkpt lat="45.76453" lon="3.49692">
        <ele>426.550701</ele>
        <time>2022-06-16T18:38:15.098Z</time>
      </trkpt>
      <trkpt lat="45.76386" lon="3.49658">
        <ele>430.717761</ele>
        <time>2022-06-16T18:38:49.164Z</time>
      </trkpt>
      <trkpt lat="45.76297" lon="3.49671">
        <ele>435.578201</ele>
        <time>2022-06-16T18:39:29.181Z</time>
      </trkpt>
      <trkpt lat="45.76236" lon="3.49671">
        <ele>438.752865</ele>
        <time>2022-06-16T18:39:53.873Z</time>
      </trkpt>
      <trkpt lat="45.76203" lon="3.49687">
        <ele>440.586972</ele>
        <time>2022-06-16T18:40:10.088Z</time>
      </trkpt>
      <trkpt lat="45.76143" lon="3.4976">
        <ele>443.866827</ele>
        <time>2022-06-16T18:40:41.525Z</time>
      </trkpt>
      <trkpt lat="45.7608" lon="3.49791">
        <ele>446.397651</ele>
        <time>2022-06-16T18:41:04.031Z</time>
      </trkpt>
      <trkpt lat="45.76076" lon="3.49795">
        <ele>446.610655</ele>
        <time>2022-06-16T18:41:05.735Z</time>
      </trkpt>
      <trkpt lat="45.7603" lon="3.49841">
        <ele>448.538054</ele>
        <time>2022-06-16T18:41:24.607Z</time>
      </trkpt>
      <trkpt lat="45.7604" lon="3.49881">
        <ele>449.077127</ele>
        <time>2022-06-16T18:41:34.266Z</time>
      </trkpt>
      <trkpt lat="45.76061" lon="3.49911">
        <ele>449.635668</ele>
        <time>2022-06-16T18:41:44.413Z</time>
      </trkpt>
      <trkpt lat="45.76168" lon="3.5">
        <ele>451.392118</ele>
        <time>2022-06-16T18:42:13.029Z</time>
      </trkpt>
      <trkpt lat="45.76174" lon="3.50005">
        <ele>451.280929</ele>
        <time>2022-06-16T18:42:14.452Z</time>
      </trkpt>
      <trkpt lat="45.76189" lon="3.50015">
        <ele>451.007789</ele>
        <time>2022-06-16T18:42:17.461Z</time>
      </trkpt>
      <trkpt lat="45.76212" lon="3.50029">
        <ele>450.58458</ele>
        <time>2022-06-16T18:42:21.639Z</time>
      </trkpt>
      <trkpt lat="45.7638" lon="3.50185">
        <ele>445.275874</ele>
        <time>2022-06-16T18:42:46.439Z</time>
      </trkpt>
      <trkpt lat="45.76404" lon="3.50213">
        <ele>444.036484</ele>
        <time>2022-06-16T18:42:49.939Z</time>
      </trkpt>
      <trkpt lat="45.7629" lon="3.50434">
        <ele>435.476189</ele>
        <time>2022-06-16T18:43:11.629Z</time>
      </trkpt>
      <trkpt lat="45.76278" lon="3.50462">
        <ele>434.392497</ele>
        <time>2022-06-16T18:43:14.340Z</time>
      </trkpt>
      <trkpt lat="45.76273" lon="3.5049">
        <ele>433.459013</ele>
        <time>2022-06-16T18:43:16.611Z</time>
      </trkpt>
      <trkpt lat="45.76272" lon="3.5057">
        <ele>431.504051</ele>
        <time>2022-06-16T18:43:23.209Z</time>
      </trkpt>
      <trkpt lat="45.76279" lon="3.5059">
        <ele>431.001099</ele>
        <time>2022-06-16T18:43:25.036Z</time>
      </trkpt>
      <trkpt lat="45.76293" lon="3.50608">
        <ele>430.407163</ele>
        <time>2022-06-16T18:43:27.327Z</time>
      </trkpt>
      <trkpt lat="45.76332" lon="3.50637">
        <ele>428.98816</ele>
        <time>2022-06-16T18:43:32.846Z</time>
      </trkpt>
      <trkpt lat="45.76352" lon="3.50642">
        <ele>428.359836</ele>
        <time>2022-06-16T18:43:35.305Z</time>
      </trkpt>
      <trkpt lat="45.76424" lon="3.50659">
        <ele>426.119011</ele>
        <time>2022-06-16T18:43:44.624Z</time>
      </trkpt>
      <trkpt lat="45.76487" lon="3.50644">
        <ele>424.255389</ele>
        <time>2022-06-16T18:43:52.529Z</time>
      </trkpt>
      <trkpt lat="45.76503" lon="3.50658">
        <ele>423.695534</ele>
        <time>2022-06-16T18:43:54.830Z</time>
      </trkpt>
      <trkpt lat="45.76506" lon="3.50688">
        <ele>423.085453</ele>
        <time>2022-06-16T18:43:57.296Z</time>
      </trkpt>
      <trkpt lat="45.76489" lon="3.50769">
        <ele>421.207569</ele>
        <time>2022-06-16T18:44:04.543Z</time>
      </trkpt>
      <trkpt lat="45.76467" lon="3.50839">
        <ele>419.169299</ele>
        <time>2022-06-16T18:44:10.989Z</time>
      </trkpt>
      <trkpt lat="45.76466" lon="3.50879">
        <ele>418.104109</ele>
        <time>2022-06-16T18:44:14.259Z</time>
      </trkpt>
      <trkpt lat="45.7648" lon="3.50977">
        <ele>415.447008</ele>
        <time>2022-06-16T18:44:22.376Z</time>
      </trkpt>
      <trkpt lat="45.76488" lon="3.51">
        <ele>414.707081</ele>
        <time>2022-06-16T18:44:24.428Z</time>
      </trkpt>
      <trkpt lat="45.76503" lon="3.51012">
        <ele>413.937027</ele>
        <time>2022-06-16T18:44:26.465Z</time>
      </trkpt>
      <trkpt lat="45.76535" lon="3.51013">
        <ele>412.550757</ele>
        <time>2022-06-16T18:44:30.186Z</time>
      </trkpt>
      <trkpt lat="45.76551" lon="3.51032">
        <ele>411.61296</ele>
        <time>2022-06-16T18:44:32.615Z</time>
      </trkpt>
      <trkpt lat="45.76553" lon="3.51052">
        <ele>411.00383</ele>
        <time>2022-06-16T18:44:34.448Z</time>
      </trkpt>
      <trkpt lat="45.76546" lon="3.5107">
        <ele>410.351576</ele>
        <time>2022-06-16T18:44:36.079Z</time>
      </trkpt>
      <trkpt lat="45.76536" lon="3.51079">
        <ele>409.847388</ele>
        <time>2022-06-16T18:44:37.450Z</time>
      </trkpt>
      <trkpt lat="45.76487" lon="3.51091">
        <ele>407.628089</ele>
        <time>2022-06-16T18:44:43.150Z</time>
      </trkpt>
      <trkpt lat="45.76465" lon="3.51104">
        <ele>406.332074</ele>
        <time>2022-06-16T18:44:45.813Z</time>
      </trkpt>
      <trkpt lat="45.76427" lon="3.51143">
        <ele>403.337133</ele>
        <time>2022-06-16T18:44:50.995Z</time>
      </trkpt>
      <trkpt lat="45.76354" lon="3.51195">
        <ele>398.159525</ele>
        <time>2022-06-16T18:44:59.775Z</time>
      </trkpt>
      <trkpt lat="45.76292" lon="3.5126">
        <ele>393.703597</ele>
        <time>2022-06-16T18:45:08.061Z</time>
      </trkpt>
      <trkpt lat="45.76213" lon="3.51395">
        <ele>387.46393</ele>
        <time>2022-06-16T18:45:22.019Z</time>
      </trkpt>
      <trkpt lat="45.76164" lon="3.51456">
        <ele>385.296142</ele>
        <time>2022-06-16T18:45:30.096Z</time>
      </trkpt>
      <trkpt lat="45.7616" lon="3.51481">
        <ele>384.839917</ele>
        <time>2022-06-16T18:45:32.297Z</time>
      </trkpt>
      <trkpt lat="45.76172" lon="3.51549">
        <ele>383.583156</ele>
        <time>2022-06-16T18:45:38.825Z</time>
      </trkpt>
      <trkpt lat="45.76191" lon="3.51591">
        <ele>382.675961</ele>
        <time>2022-06-16T18:45:43.362Z</time>
      </trkpt>
      <trkpt lat="45.76266" lon="3.51695">
        <ele>379.636669</ele>
        <time>2022-06-16T18:45:56.591Z</time>
      </trkpt>
      <trkpt lat="45.76276" lon="3.51734">
        <ele>378.746662</ele>
        <time>2022-06-16T18:45:59.887Z</time>
      </trkpt>
      <trkpt lat="45.76283" lon="3.51804">
        <ele>377.243685</ele>
        <time>2022-06-16T18:46:05.832Z</time>
      </trkpt>
      <trkpt lat="45.76318" lon="3.51921">
        <ele>374.550766</ele>
        <time>2022-06-16T18:46:16.937Z</time>
      </trkpt>
      <trkpt lat="45.7631" lon="3.51971">
        <ele>373.482527</ele>
        <time>2022-06-16T18:46:21.493Z</time>
      </trkpt>
      <trkpt lat="45.76318" lon="3.52035">
        <ele>372.137925</ele>
        <time>2022-06-16T18:46:27.034Z</time>
      </trkpt>
      <trkpt lat="45.7631" lon="3.52151">
        <ele>369.760427</ele>
        <time>2022-06-16T18:46:36.863Z</time>
      </trkpt>
      <trkpt lat="45.76275" lon="3.52295">
        <ele>366.727965</ele>
        <time>2022-06-16T18:46:50.118Z</time>
      </trkpt>
      <trkpt lat="45.76266" lon="3.52316">
        <ele>366.262644</ele>
        <time>2022-06-16T18:46:52.388Z</time>
      </trkpt>
      <trkpt lat="45.76226" lon="3.5234">
        <ele>365.209525</ele>
        <time>2022-06-16T18:46:57.860Z</time>
      </trkpt>
      <trkpt lat="45.76218" lon="3.52349">
        <ele>364.986625</ele>
        <time>2022-06-16T18:46:59.086Z</time>
      </trkpt>
      <trkpt lat="45.76214" lon="3.52364">
        <ele>364.742667</ele>
        <time>2022-06-16T18:47:00.629Z</time>
      </trkpt>
      <trkpt lat="45.76216" lon="3.52385">
        <ele>364.426931</ele>
        <time>2022-06-16T18:47:02.459Z</time>
      </trkpt>
      <trkpt lat="45.76251" lon="3.52422">
        <ele>363.481453</ele>
        <time>2022-06-16T18:47:08.115Z</time>
      </trkpt>
      <trkpt lat="45.7626" lon="3.52446">
        <ele>363.064951</ele>
        <time>2022-06-16T18:47:11.091Z</time>
      </trkpt>
      <trkpt lat="45.76257" lon="3.52484">
        <ele>362.475593</ele>
        <time>2022-06-16T18:47:14.768Z</time>
      </trkpt>
      <trkpt lat="45.76233" lon="3.52567">
        <ele>360.750335</ele>
        <time>2022-06-16T18:47:22.750Z</time>
      </trkpt>
      <trkpt lat="45.7622" lon="3.52605">
        <ele>359.808751</ele>
        <time>2022-06-16T18:47:26.334Z</time>
      </trkpt>
      <trkpt lat="45.76164" lon="3.52707">
        <ele>356.913152</ele>
        <time>2022-06-16T18:47:37.053Z</time>
      </trkpt>
      <trkpt lat="45.76147" lon="3.52838">
        <ele>354.202888</ele>
        <time>2022-06-16T18:47:48.407Z</time>
      </trkpt>
      <trkpt lat="45.76129" lon="3.52883">
        <ele>353.166284</ele>
        <time>2022-06-16T18:47:53.016Z</time>
      </trkpt>
      <trkpt lat="45.76085" lon="3.52944">
        <ele>351.449785</ele>
        <time>2022-06-16T18:48:00.745Z</time>
      </trkpt>
      <trkpt lat="45.76083" lon="3.52947">
        <ele>351.378563</ele>
        <time>2022-06-16T18:48:01.067Z</time>
      </trkpt>
      <trkpt lat="45.7599" lon="3.5307">
        <ele>347.583911</ele>
        <time>2022-06-16T18:48:17.226Z</time>
      </trkpt>
      <trkpt lat="45.75988" lon="3.53072">
        <ele>347.501666</ele>
        <time>2022-06-16T18:48:17.555Z</time>
      </trkpt>
      <trkpt lat="45.75921" lon="3.53128">
        <ele>344.924344</ele>
        <time>2022-06-16T18:48:26.704Z</time>
      </trkpt>
      <trkpt lat="45.75895" lon="3.53153">
        <ele>343.606674</ele>
        <time>2022-06-16T18:48:30.251Z</time>
      </trkpt>
      <trkpt lat="45.75878" lon="3.53188">
        <ele>342.331414</ele>
        <time>2022-06-16T18:48:33.668Z</time>
      </trkpt>
      <trkpt lat="45.75864" lon="3.53219">
        <ele>341.241647</ele>
        <time>2022-06-16T18:48:36.584Z</time>
      </trkpt>
      <trkpt lat="45.75848" lon="3.53239">
        <ele>340.327449</ele>
        <time>2022-06-16T18:48:39.039Z</time>
      </trkpt>
      <trkpt lat="45.75819" lon="3.53253">
        <ele>339.008584</ele>
        <time>2022-06-16T18:48:42.590Z</time>
      </trkpt>
      <trkpt lat="45.75778" lon="3.53271">
        <ele>337.606305</ele>
        <time>2022-06-16T18:48:47.553Z</time>
      </trkpt>
      <trkpt lat="45.75695" lon="3.53328">
        <ele>335.6966</ele>
        <time>2022-06-16T18:48:59.233Z</time>
      </trkpt>
      <trkpt lat="45.75652" lon="3.53367">
        <ele>334.640848</ele>
        <time>2022-06-16T18:49:06.726Z</time>
      </trkpt>
      <trkpt lat="45.75627" lon="3.53416">
        <ele>334.167861</ele>
        <time>2022-06-16T18:49:13.723Z</time>
      </trkpt>
      <trkpt lat="45.75577" lon="3.53577">
        <ele>333.697456</ele>
        <time>2022-06-16T18:49:35.395Z</time>
      </trkpt>
      <trkpt lat="45.75575" lon="3.53583">
        <ele>333.678391</ele>
        <time>2022-06-16T18:49:36.221Z</time>
      </trkpt>
      <trkpt lat="45.75568" lon="3.53606">
        <ele>333.611387</ele>
        <time>2022-06-16T18:49:38.989Z</time>
      </trkpt>
      <trkpt lat="45.75545" lon="3.53675">
        <ele>332.234947</ele>
        <time>2022-06-16T18:49:46.997Z</time>
      </trkpt>
      <trkpt lat="45.75553" lon="3.53693">
        <ele>331.780425</ele>
        <time>2022-06-16T18:49:48.892Z</time>
      </trkpt>
      <trkpt lat="45.7556" lon="3.53788">
        <ele>329.720088</ele>
        <time>2022-06-16T18:49:56.914Z</time>
      </trkpt>
      <trkpt lat="45.75561" lon="3.53808">
        <ele>329.283024</ele>
        <time>2022-06-16T18:49:58.538Z</time>
      </trkpt>
      <trkpt lat="45.75561" lon="3.53813">
        <ele>329.187773</ele>
        <time>2022-06-16T18:49:58.877Z</time>
      </trkpt>
      <trkpt lat="45.75566" lon="3.53875">
        <ele>327.745287</ele>
        <time>2022-06-16T18:50:03.845Z</time>
      </trkpt>
      <trkpt lat="45.75563" lon="3.53907">
        <ele>326.732374</ele>
        <time>2022-06-16T18:50:06.394Z</time>
      </trkpt>
      <trkpt lat="45.75564" lon="3.53925">
        <ele>326.173348</ele>
        <time>2022-06-16T18:50:07.741Z</time>
      </trkpt>
      <trkpt lat="45.75591" lon="3.53988">
        <ele>323.8267</ele>
        <time>2022-06-16T18:50:13.615Z</time>
      </trkpt>
      <trkpt lat="45.75601" lon="3.54013">
        <ele>322.910501</ele>
        <time>2022-06-16T18:50:15.862Z</time>
      </trkpt>
      <trkpt lat="45.75674" lon="3.54191">
        <ele>318.369599</ele>
        <time>2022-06-16T18:50:32.944Z</time>
      </trkpt>
      <trkpt lat="45.75684" lon="3.54215">
        <ele>317.98418</ele>
        <time>2022-06-16T18:50:35.954Z</time>
      </trkpt>
      <trkpt lat="45.75649" lon="3.54226">
        <ele>317.294114</ele>
        <time>2022-06-16T18:50:41.485Z</time>
      </trkpt>
      <trkpt lat="45.75626" lon="3.54237">
        <ele>316.814163</ele>
        <time>2022-06-16T18:50:45.311Z</time>
      </trkpt>
      <trkpt lat="45.75518" lon="3.54278">
        <ele>316.090634</ele>
        <time>2022-06-16T18:51:03.473Z</time>
      </trkpt>
      <trkpt lat="45.75418" lon="3.54321">
        <ele>315.776701</ele>
        <time>2022-06-16T18:51:21.369Z</time>
      </trkpt>
      <trkpt lat="45.75425" lon="3.54354">
        <ele>315.713968</ele>
        <time>2022-06-16T18:51:25.295Z</time>
      </trkpt>
      <trkpt lat="45.75429" lon="3.54371">
        <ele>315.681103</ele>
        <time>2022-06-16T18:51:27.355Z</time>
      </trkpt>
      <trkpt lat="45.75444" lon="3.54434">
        <ele>315.559717</ele>
        <time>2022-06-16T18:51:34.829Z</time>
      </trkpt>
      <trkpt lat="45.75452" lon="3.54466">
        <ele>315.497154</ele>
        <time>2022-06-16T18:51:38.741Z</time>
      </trkpt>
      <trkpt lat="45.75483" lon="3.54517">
        <ele>315.373842</ele>
        <time>2022-06-16T18:51:46.537Z</time>
      </trkpt>
      <trkpt lat="45.75506" lon="3.54599">
        <ele>315.70863</ele>
        <time>2022-06-16T18:51:57.381Z</time>
      </trkpt>
      <trkpt lat="45.75512" lon="3.54616">
        <ele>315.804512</ele>
        <time>2022-06-16T18:51:59.674Z</time>
      </trkpt>
      <trkpt lat="45.75516" lon="3.54628">
        <ele>315.876956</ele>
        <time>2022-06-16T18:52:01.465Z</time>
      </trkpt>
      <trkpt lat="45.75524" lon="3.5465">
        <ele>316.002894</ele>
        <time>2022-06-16T18:52:04.779Z</time>
      </trkpt>
      <trkpt lat="45.7553" lon="3.5467">
        <ele>316.115433</ele>
        <time>2022-06-16T18:52:07.765Z</time>
      </trkpt>
      <trkpt lat="45.75575" lon="3.54765">
        <ele>316.868612</ele>
        <time>2022-06-16T18:52:26.759Z</time>
      </trkpt>
      <trkpt lat="45.75584" lon="3.54808">
        <ele>318.484398</ele>
        <time>2022-06-16T18:52:36.113Z</time>
      </trkpt>
      <trkpt lat="45.75592" lon="3.54885">
        <ele>321.227898</ele>
        <time>2022-06-16T18:52:54.628Z</time>
      </trkpt>
      <trkpt lat="45.75594" lon="3.5491">
        <ele>322.14479</ele>
        <time>2022-06-16T18:53:01.136Z</time>
      </trkpt>
      <trkpt lat="45.75621" lon="3.55072">
        <ele>331.160504</ele>
        <time>2022-06-16T18:54:06.208Z</time>
      </trkpt>
      <trkpt lat="45.75653" lon="3.55125">
        <ele>337.184034</ele>
        <time>2022-06-16T18:54:45.111Z</time>
      </trkpt>
      <trkpt lat="45.75656" lon="3.5515">
        <ele>339.422715</ele>
        <time>2022-06-16T18:55:00.941Z</time>
      </trkpt>
      <trkpt lat="45.75654" lon="3.55158">
        <ele>340.136725</ele>
        <time>2022-06-16T18:55:05.456Z</time>
      </trkpt>
      <trkpt lat="45.75703" lon="3.55293">
        <ele>354.92937</ele>
        <time>2022-06-16T18:56:44.892Z</time>
      </trkpt>
      <trkpt lat="45.75719" lon="3.55365">
        <ele>363.510454</ele>
        <time>2022-06-16T18:57:43.021Z</time>
      </trkpt>
      <trkpt lat="45.75712" lon="3.55436">
        <ele>371.63898</ele>
        <time>2022-06-16T18:58:35.691Z</time>
      </trkpt>
      <trkpt lat="45.7568" lon="3.55474">
        <ele>378.176278</ele>
        <time>2022-06-16T18:59:18.589Z</time>
      </trkpt>
      <trkpt lat="45.75681" lon="3.55494">
        <ele>380.237555</ele>
        <time>2022-06-16T18:59:35.398Z</time>
      </trkpt>
      <trkpt lat="45.75704" lon="3.55568">
        <ele>388.611949</ele>
        <time>2022-06-16T19:00:26.163Z</time>
      </trkpt>
      <trkpt lat="45.75703" lon="3.55591">
        <ele>390.986458</ele>
        <time>2022-06-16T19:00:45.716Z</time>
      </trkpt>
      <trkpt lat="45.75718" lon="3.55682">
        <ele>400.631346</ele>
        <time>2022-06-16T19:01:48.387Z</time>
      </trkpt>
      <trkpt lat="45.75718" lon="3.55739">
        <ele>405.36978</ele>
        <time>2022-06-16T19:02:21.182Z</time>
      </trkpt>
      <trkpt lat="45.75671" lon="3.55903">
        <ele>416.293846</ele>
        <time>2022-06-16T19:03:45.004Z</time>
      </trkpt>
      <trkpt lat="45.75647" lon="3.56009">
        <ele>421.171289</ele>
        <time>2022-06-16T19:04:24.369Z</time>
      </trkpt>
      <trkpt lat="45.7559" lon="3.56149">
        <ele>425.577384</ele>
        <time>2022-06-16T19:05:10.040Z</time>
      </trkpt>
      <trkpt lat="45.75585" lon="3.56183">
        <ele>426.514561</ele>
        <time>2022-06-16T19:05:18.784Z</time>
      </trkpt>
      <trkpt lat="45.75588" lon="3.56248">
        <ele>427.975638</ele>
        <time>2022-06-16T19:05:35.332Z</time>
      </trkpt>
      <trkpt lat="45.75574" lon="3.56254">
        <ele>428.439037</ele>
        <time>2022-06-16T19:05:40.871Z</time>
      </trkpt>
      <trkpt lat="45.7556" lon="3.56273">
        <ele>429.052932</ele>
        <time>2022-06-16T19:05:47.897Z</time>
      </trkpt>
      <trkpt lat="45.75574" lon="3.56289">
        <ele>429.633305</ele>
        <time>2022-06-16T19:05:53.930Z</time>
      </trkpt>
      <trkpt lat="45.75584" lon="3.5632">
        <ele>430.394043</ele>
        <time>2022-06-16T19:06:01.614Z</time>
      </trkpt>
      <trkpt lat="45.75585" lon="3.56484">
        <ele>434.647172</ele>
        <time>2022-06-16T19:06:42.774Z</time>
      </trkpt>
      <trkpt lat="45.75585" lon="3.56623">
        <ele>438.839674</ele>
        <time>2022-06-16T19:07:20.850Z</time>
      </trkpt>
      <trkpt lat="45.75583" lon="3.56763">
        <ele>443.501619</ele>
        <time>2022-06-16T19:08:00.491Z</time>
      </trkpt>
      <trkpt lat="45.75563" lon="3.5694">
        <ele>449.529858</ele>
        <time>2022-06-16T19:08:54.713Z</time>
      </trkpt>
      <trkpt lat="45.75554" lon="3.57046">
        <ele>452.26028</ele>
        <time>2022-06-16T19:09:23.705Z</time>
      </trkpt>
      <trkpt lat="45.75566" lon="3.5726">
        <ele>456.021728</ele>
        <time>2022-06-16T19:10:09.672Z</time>
      </trkpt>
      <trkpt lat="45.75584" lon="3.57304">
        <ele>456.295859</ele>
        <time>2022-06-16T19:10:16.582Z</time>
      </trkpt>
      <trkpt lat="45.7561" lon="3.57346">
        <ele>456.59694</ele>
        <time>2022-06-16T19:10:23.402Z</time>
      </trkpt>
      <trkpt lat="45.75685" lon="3.57416">
        <ele>456.42081</ele>
        <time>2022-06-16T19:10:37.267Z</time>
      </trkpt>
      <trkpt lat="45.75718" lon="3.57433">
        <ele>455.988014</ele>
        <time>2022-06-16T19:10:42.471Z</time>
      </trkpt>
      <trkpt lat="45.75785" lon="3.57453">
        <ele>455.138059</ele>
        <time>2022-06-16T19:10:52.131Z</time>
      </trkpt>
      <trkpt lat="45.7583" lon="3.57491">
        <ele>454.118892</ele>
        <time>2022-06-16T19:10:59.065Z</time>
      </trkpt>
      <trkpt lat="45.75848" lon="3.57518">
        <ele>453.266911</ele>
        <time>2022-06-16T19:11:02.537Z</time>
      </trkpt>
      <trkpt lat="45.75938" lon="3.57714">
        <ele>447.723294</ele>
        <time>2022-06-16T19:11:21.966Z</time>
      </trkpt>
      <trkpt lat="45.75965" lon="3.57806">
        <ele>444.934757</ele>
        <time>2022-06-16T19:11:29.888Z</time>
      </trkpt>
      <trkpt lat="45.75983" lon="3.57913">
        <ele>441.835712</ele>
        <time>2022-06-16T19:11:38.817Z</time>
      </trkpt>
      <trkpt lat="45.75967" lon="3.58171">
        <ele>437.507447</ele>
        <time>2022-06-16T19:12:02.205Z</time>
      </trkpt>
      <trkpt lat="45.75953" lon="3.58292">
        <ele>435.973271</ele>
        <time>2022-06-16T19:12:13.842Z</time>
      </trkpt>
      <trkpt lat="45.75935" lon="3.58339">
        <ele>435.313995</ele>
        <time>2022-06-16T19:12:18.885Z</time>
      </trkpt>
      <trkpt lat="45.7593" lon="3.58347">
        <ele>435.175822</ele>
        <time>2022-06-16T19:12:20.248Z</time>
      </trkpt>
      <trkpt lat="45.75892" lon="3.58368">
        <ele>434.467438</ele>
        <time>2022-06-16T19:12:25.561Z</time>
      </trkpt>
      <trkpt lat="45.75879" lon="3.58374">
        <ele>434.212693</ele>
        <time>2022-06-16T19:12:27.336Z</time>
      </trkpt>
      <trkpt lat="45.75855" lon="3.58373">
        <ele>433.78223</ele>
        <time>2022-06-16T19:12:30.728Z</time>
      </trkpt>
      <trkpt lat="45.75806" lon="3.58338">
        <ele>432.810615</ele>
        <time>2022-06-16T19:12:38.091Z</time>
      </trkpt>
      <trkpt lat="45.75776" lon="3.58329">
        <ele>432.254465</ele>
        <time>2022-06-16T19:12:42.215Z</time>
      </trkpt>
      <trkpt lat="45.75755" lon="3.58335">
        <ele>431.881314</ele>
        <time>2022-06-16T19:12:45.041Z</time>
      </trkpt>
      <trkpt lat="45.75748" lon="3.58343">
        <ele>431.717088</ele>
        <time>2022-06-16T19:12:46.171Z</time>
      </trkpt>
      <trkpt lat="45.75716" lon="3.58426">
        <ele>430.325995</ele>
        <time>2022-06-16T19:12:55.216Z</time>
      </trkpt>
      <trkpt lat="45.75714" lon="3.58436">
        <ele>430.136417</ele>
        <time>2022-06-16T19:12:56.448Z</time>
      </trkpt>
      <trkpt lat="45.75707" lon="3.58466">
        <ele>429.568524</ele>
        <time>2022-06-16T19:12:59.301Z</time>
      </trkpt>
      <trkpt lat="45.75703" lon="3.58546">
        <ele>428.118418</ele>
        <time>2022-06-16T19:13:06.514Z</time>
      </trkpt>
      <trkpt lat="45.75705" lon="3.58596">
        <ele>427.230642</ele>
        <time>2022-06-16T19:13:10.805Z</time>
      </trkpt>
      <trkpt lat="45.75719" lon="3.58721">
        <ele>423.878148</ele>
        <time>2022-06-16T19:13:21.242Z</time>
      </trkpt>
      <trkpt lat="45.75718" lon="3.58764">
        <ele>422.52609</ele>
        <time>2022-06-16T19:13:24.689Z</time>
      </trkpt>
      <trkpt lat="45.75705" lon="3.58877">
        <ele>418.970275</ele>
        <time>2022-06-16T19:13:33.715Z</time>
      </trkpt>
      <trkpt lat="45.75657" lon="3.59045">
        <ele>412.804619</ele>
        <time>2022-06-16T19:13:48.171Z</time>
      </trkpt>
      <trkpt lat="45.75648" lon="3.59111">
        <ele>410.517802</ele>
        <time>2022-06-16T19:13:53.397Z</time>
      </trkpt>
      <trkpt lat="45.75644" lon="3.592">
        <ele>407.974128</ele>
        <time>2022-06-16T19:14:00.480Z</time>
      </trkpt>
      <trkpt lat="45.75651" lon="3.59269">
        <ele>406.150761</ele>
        <time>2022-06-16T19:14:06.078Z</time>
      </trkpt>
      <trkpt lat="45.75674" lon="3.59297">
        <ele>405.032609</ele>
        <time>2022-06-16T19:14:09.563Z</time>
      </trkpt>
      <trkpt lat="45.75677" lon="3.59328">
        <ele>404.223402</ele>
        <time>2022-06-16T19:14:12.169Z</time>
      </trkpt>
      <trkpt lat="45.75581" lon="3.59472">
        <ele>403.688101</ele>
        <time>2022-06-16T19:14:32.482Z</time>
      </trkpt>
      <trkpt lat="45.75566" lon="3.59514">
        <ele>403.95329</ele>
        <time>2022-06-16T19:14:42.215Z</time>
      </trkpt>
      <trkpt lat="45.75558" lon="3.59594">
        <ele>404.853741</ele>
        <time>2022-06-16T19:15:03.047Z</time>
      </trkpt>
      <trkpt lat="45.75559" lon="3.59618">
        <ele>405.620502</ele>
        <time>2022-06-16T19:15:07.791Z</time>
      </trkpt>
      <trkpt lat="45.75567" lon="3.59637">
        <ele>406.323748</ele>
        <time>2022-06-16T19:15:15.159Z</time>
      </trkpt>
      <trkpt lat="45.75659" lon="3.59729">
        <ele>411.403873</ele>
        <time>2022-06-16T19:16:01.700Z</time>
      </trkpt>
      <trkpt lat="45.75664" lon="3.59744">
        <ele>411.93164</ele>
        <time>2022-06-16T19:16:06.858Z</time>
      </trkpt>
      <trkpt lat="45.75657" lon="3.59772">
        <ele>412.823806</ele>
        <time>2022-06-16T19:16:15.218Z</time>
      </trkpt>
      <trkpt lat="45.75643" lon="3.59787">
        <ele>413.514709</ele>
        <time>2022-06-16T19:16:22.181Z</time>
      </trkpt>
      <trkpt lat="45.75634" lon="3.59792">
        <ele>413.916413</ele>
        <time>2022-06-16T19:16:25.176Z</time>
      </trkpt>
      <trkpt lat="45.75586" lon="3.59787">
        <ele>415.834308</ele>
        <time>2022-06-16T19:16:41.338Z</time>
      </trkpt>
      <trkpt lat="45.75575" lon="3.59793">
        <ele>416.321104</ele>
        <time>2022-06-16T19:16:46.658Z</time>
      </trkpt>
      <trkpt lat="45.75549" lon="3.59887">
        <ele>419.121722</ele>
        <time>2022-06-16T19:17:10.836Z</time>
      </trkpt>
      <trkpt lat="45.75546" lon="3.59912">
        <ele>419.854182</ele>
        <time>2022-06-16T19:17:16.634Z</time>
      </trkpt>
      <trkpt lat="45.75575" lon="3.60116">
        <ele>427.157148</ele>
        <time>2022-06-16T19:18:16.842Z</time>
      </trkpt>
      <trkpt lat="45.75589" lon="3.60248">
        <ele>432.842029</ele>
        <time>2022-06-16T19:19:01.951Z</time>
      </trkpt>
      <trkpt lat="45.7559" lon="3.6039">
        <ele>439.361826</ele>
        <time>2022-06-16T19:19:54.782Z</time>
      </trkpt>
      <trkpt lat="45.75598" lon="3.60502">
        <ele>442.303673</ele>
        <time>2022-06-16T19:20:30.209Z</time>
      </trkpt>
      <trkpt lat="45.75626" lon="3.6062">
        <ele>444.774049</ele>
        <time>2022-06-16T19:21:00.224Z</time>
      </trkpt>
      <trkpt lat="45.75629" lon="3.60706">
        <ele>445.168827</ele>
        <time>2022-06-16T19:21:14.160Z</time>
      </trkpt>
      <trkpt lat="45.75628" lon="3.60762">
        <ele>444.355385</ele>
        <time>2022-06-16T19:21:21.655Z</time>
      </trkpt>
      <trkpt lat="45.75631" lon="3.60784">
        <ele>444.045374</ele>
        <time>2022-06-16T19:21:24.493Z</time>
      </trkpt>
      <trkpt lat="45.75679" lon="3.60957">
        <ele>441.200006</ele>
        <time>2022-06-16T19:21:47.420Z</time>
      </trkpt>
      <trkpt lat="45.75679" lon="3.60985">
        <ele>440.684158</ele>
        <time>2022-06-16T19:21:51.152Z</time>
      </trkpt>
      <trkpt lat="45.75672" lon="3.6102">
        <ele>440.015798</ele>
        <time>2022-06-16T19:21:55.909Z</time>
      </trkpt>
      <trkpt lat="45.75572" lon="3.61467">
        <ele>432.554788</ele>
        <time>2022-06-16T19:22:55.228Z</time>
      </trkpt>
      <trkpt lat="45.75566" lon="3.61491">
        <ele>432.485747</ele>
        <time>2022-06-16T19:22:58.477Z</time>
      </trkpt>
      <trkpt lat="45.75536" lon="3.61694">
        <ele>433.957003</ele>
        <time>2022-06-16T19:23:34.090Z</time>
      </trkpt>
      <trkpt lat="45.75533" lon="3.61783">
        <ele>438.42067</ele>
        <time>2022-06-16T19:24:12.891Z</time>
      </trkpt>
      <trkpt lat="45.75533" lon="3.6179">
        <ele>438.758686</ele>
        <time>2022-06-16T19:24:15.097Z</time>
      </trkpt>
      <trkpt lat="45.75529" lon="3.61856">
        <ele>442.055401</ele>
        <time>2022-06-16T19:24:45.814Z</time>
      </trkpt>
      <trkpt lat="45.75521" lon="3.6189">
        <ele>443.843228</ele>
        <time>2022-06-16T19:25:00.476Z</time>
      </trkpt>
      <trkpt lat="45.75507" lon="3.61916">
        <ele>445.568901</ele>
        <time>2022-06-16T19:25:17.307Z</time>
      </trkpt>
      <trkpt lat="45.75533" lon="3.61957">
        <ele>448.85793</ele>
        <time>2022-06-16T19:25:42.438Z</time>
      </trkpt>
      <trkpt lat="45.75558" lon="3.6197">
        <ele>451.038047</ele>
        <time>2022-06-16T19:25:58.824Z</time>
      </trkpt>
      <trkpt lat="45.7557" lon="3.61969">
        <ele>452.020594</ele>
        <time>2022-06-16T19:26:06.102Z</time>
      </trkpt>
      <trkpt lat="45.75599" lon="3.61947">
        <ele>454.82784</ele>
        <time>2022-06-16T19:26:26.021Z</time>
      </trkpt>
      <trkpt lat="45.7564" lon="3.61935">
        <ele>458.279064</ele>
        <time>2022-06-16T19:26:48.752Z</time>
      </trkpt>
      <trkpt lat="45.75671" lon="3.61937">
        <ele>460.774427</ele>
        <time>2022-06-16T19:27:02.938Z</time>
      </trkpt>
      <trkpt lat="45.75684" lon="3.61952">
        <ele>461.968512</ele>
        <time>2022-06-16T19:27:09.585Z</time>
      </trkpt>
      <trkpt lat="45.75684" lon="3.61968">
        <ele>462.800611</ele>
        <time>2022-06-16T19:27:13.948Z</time>
      </trkpt>
      <trkpt lat="45.75675" lon="3.62024">
        <ele>465.763887</ele>
        <time>2022-06-16T19:27:31.601Z</time>
      </trkpt>
      <trkpt lat="45.75673" lon="3.62058">
        <ele>467.468352</ele>
        <time>2022-06-16T19:27:43.514Z</time>
      </trkpt>
      <trkpt lat="45.75678" lon="3.62074">
        <ele>468.373145</ele>
        <time>2022-06-16T19:27:49.713Z</time>
      </trkpt>
      <trkpt lat="45.75744" lon="3.62155">
        <ele>475.401304</ele>
        <time>2022-06-16T19:28:43.209Z</time>
      </trkpt>
      <trkpt lat="45.75823" lon="3.62236">
        <ele>485.345611</ele>
        <time>2022-06-16T19:29:52.961Z</time>
      </trkpt>
      <trkpt lat="45.75877" lon="3.62394">
        <ele>496.423017</ele>
        <time>2022-06-16T19:31:12.086Z</time>
      </trkpt>
      <trkpt lat="45.75888" lon="3.62452">
        <ele>499.694088</ele>
        <time>2022-06-16T19:31:33.647Z</time>
      </trkpt>
      <trkpt lat="45.75897" lon="3.62464">
        <ele>500.652554</ele>
        <time>2022-06-16T19:31:39.539Z</time>
      </trkpt>
      <trkpt lat="45.75912" lon="3.62468">
        <ele>501.835056</ele>
        <time>2022-06-16T19:31:46.748Z</time>
      </trkpt>
      <trkpt lat="45.75961" lon="3.62462">
        <ele>505.612599</ele>
        <time>2022-06-16T19:32:10.106Z</time>
      </trkpt>
      <trkpt lat="45.75986" lon="3.62492">
        <ele>508.074287</ele>
        <time>2022-06-16T19:32:27.005Z</time>
      </trkpt>
      <trkpt lat="45.7599" lon="3.62583">
        <ele>512.858643</ele>
        <time>2022-06-16T19:33:02.100Z</time>
      </trkpt>
      <trkpt lat="45.75999" lon="3.62613">
        <ele>514.536756</ele>
        <time>2022-06-16T19:33:14.315Z</time>
      </trkpt>
      <trkpt lat="45.7602" lon="3.62649">
        <ele>517.037069</ele>
        <time>2022-06-16T19:33:31.573Z</time>
      </trkpt>
      <trkpt lat="45.76028" lon="3.62684">
        <ele>518.963228</ele>
        <time>2022-06-16T19:33:44.733Z</time>
      </trkpt>
      <trkpt lat="45.76028" lon="3.62701">
        <ele>519.874147</ele>
        <time>2022-06-16T19:33:53.710Z</time>
      </trkpt>
      <trkpt lat="45.75964" lon="3.62833">
        <ele>528.25361</ele>
        <time>2022-06-16T19:34:58.863Z</time>
      </trkpt>
      <trkpt lat="45.75931" lon="3.62877">
        <ele>531.629809</ele>
        <time>2022-06-16T19:35:20.776Z</time>
      </trkpt>
      <trkpt lat="45.75899" lon="3.62938">
        <ele>534.998666</ele>
        <time>2022-06-16T19:35:42.731Z</time>
      </trkpt>
      <trkpt lat="45.75875" lon="3.62957">
        <ele>536.642289</ele>
        <time>2022-06-16T19:35:54.964Z</time>
      </trkpt>
      <trkpt lat="45.75866" lon="3.62983">
        <ele>537.89634</ele>
        <time>2022-06-16T19:36:05.020Z</time>
      </trkpt>
      <trkpt lat="45.75865" lon="3.63001">
        <ele>538.640365</ele>
        <time>2022-06-16T19:36:11.035Z</time>
      </trkpt>
      <trkpt lat="45.75899" lon="3.63085">
        <ele>542.699658</ele>
        <time>2022-06-16T19:36:44.532Z</time>
      </trkpt>
      <trkpt lat="45.75938" lon="3.63249">
        <ele>549.425527</ele>
        <time>2022-06-16T19:37:38.672Z</time>
      </trkpt>
      <trkpt lat="45.75948" lon="3.63271">
        <ele>550.452317</ele>
        <time>2022-06-16T19:37:46.162Z</time>
      </trkpt>
      <trkpt lat="45.75987" lon="3.63315">
        <ele>553.178668</ele>
        <time>2022-06-16T19:38:06.840Z</time>
      </trkpt>
      <trkpt lat="45.76" lon="3.63317">
        <ele>553.942402</ele>
        <time>2022-06-16T19:38:12.479Z</time>
      </trkpt>
      <trkpt lat="45.76009" lon="3.63311">
        <ele>554.573461</ele>
        <time>2022-06-16T19:38:17.182Z</time>
      </trkpt>
      <trkpt lat="45.76029" lon="3.63247">
        <ele>557.500952</ele>
        <time>2022-06-16T19:38:38.478Z</time>
      </trkpt>
      <trkpt lat="45.76062" lon="3.63215">
        <ele>559.883027</ele>
        <time>2022-06-16T19:38:55.855Z</time>
      </trkpt>
      <trkpt lat="45.76141" lon="3.63164">
        <ele>565.307361</ele>
        <time>2022-06-16T19:39:40.000Z</time>
      </trkpt>
      <trkpt lat="45.7618" lon="3.63128">
        <ele>568.623391</ele>
        <time>2022-06-16T19:40:05.620Z</time>
      </trkpt>
      <trkpt lat="45.76199" lon="3.63094">
        <ele>570.786941</ele>
        <time>2022-06-16T19:40:22.833Z</time>
      </trkpt>
      <trkpt lat="45.76246" lon="3.63049">
        <ele>574.82311</ele>
        <time>2022-06-16T19:40:52.445Z</time>
      </trkpt>
      <trkpt lat="45.76278" lon="3.63043">
        <ele>577.121493</ele>
        <time>2022-06-16T19:41:08.451Z</time>
      </trkpt>
      <trkpt lat="45.76314" lon="3.63045">
        <ele>578.727751</ele>
        <time>2022-06-16T19:41:24.906Z</time>
      </trkpt>
      <trkpt lat="45.76349" lon="3.6303">
        <ele>580.364489</ele>
        <time>2022-06-16T19:41:40.884Z</time>
      </trkpt>
      <trkpt lat="45.76371" lon="3.63029">
        <ele>581.358432</ele>
        <time>2022-06-16T19:41:50.155Z</time>
      </trkpt>
      <trkpt lat="45.76386" lon="3.63041">
        <ele>582.130354</ele>
        <time>2022-06-16T19:41:57.251Z</time>
      </trkpt>
      <trkpt lat="45.76419" lon="3.63098">
        <ele>584.469589</ele>
        <time>2022-06-16T19:42:16.610Z</time>
      </trkpt>
      <trkpt lat="45.76453" lon="3.6314">
        <ele>584.82327</ele>
        <time>2022-06-16T19:42:27.330Z</time>
      </trkpt>
      <trkpt lat="45.76474" lon="3.63185">
        <ele>584.521608</ele>
        <time>2022-06-16T19:42:33.697Z</time>
      </trkpt>
      <trkpt lat="45.76514" lon="3.63229">
        <ele>584.118291</ele>
        <time>2022-06-16T19:42:41.403Z</time>
      </trkpt>
      <trkpt lat="45.76541" lon="3.63236">
        <ele>583.907242</ele>
        <time>2022-06-16T19:42:44.725Z</time>
      </trkpt>
      <trkpt lat="45.76604" lon="3.63234">
        <ele>582.838155</ele>
        <time>2022-06-16T19:42:52.377Z</time>
      </trkpt>
      <trkpt lat="45.76624" lon="3.63245">
        <ele>582.244724</ele>
        <time>2022-06-16T19:42:55.067Z</time>
      </trkpt>
      <trkpt lat="45.76642" lon="3.63265">
        <ele>581.638371</ele>
        <time>2022-06-16T19:42:57.634Z</time>
      </trkpt>
      <trkpt lat="45.76657" lon="3.63292">
        <ele>580.981224</ele>
        <time>2022-06-16T19:43:00.477Z</time>
      </trkpt>
      <trkpt lat="45.76668" lon="3.63347">
        <ele>579.903595</ele>
        <time>2022-06-16T19:43:05.289Z</time>
      </trkpt>
      <trkpt lat="45.76668" lon="3.63509">
        <ele>579.044017</ele>
        <time>2022-06-16T19:43:23.154Z</time>
      </trkpt>
      <trkpt lat="45.7667" lon="3.63638">
        <ele>579.391154</ele>
        <time>2022-06-16T19:43:43.365Z</time>
      </trkpt>
      <trkpt lat="45.7667" lon="3.63687">
        <ele>579.785439</ele>
        <time>2022-06-16T19:43:51.878Z</time>
      </trkpt>
      <trkpt lat="45.76659" lon="3.63775">
        <ele>581.071252</ele>
        <time>2022-06-16T19:44:07.671Z</time>
      </trkpt>
      <trkpt lat="45.7666" lon="3.63811">
        <ele>581.590368</ele>
        <time>2022-06-16T19:44:14.450Z</time>
      </trkpt>
      <trkpt lat="45.76696" lon="3.64093">
        <ele>586.604172</ele>
        <time>2022-06-16T19:45:16.163Z</time>
      </trkpt>
      <trkpt lat="45.76734" lon="3.64198">
        <ele>588.943495</ele>
        <time>2022-06-16T19:45:42.864Z</time>
      </trkpt>
      <trkpt lat="45.76742" lon="3.64224">
        <ele>589.50123</ele>
        <time>2022-06-16T19:45:48.916Z</time>
      </trkpt>
      <trkpt lat="45.76775" lon="3.64372">
        <ele>592.646483</ele>
        <time>2022-06-16T19:46:22.508Z</time>
      </trkpt>
      <trkpt lat="45.76787" lon="3.64404">
        <ele>593.390195</ele>
        <time>2022-06-16T19:46:30.447Z</time>
      </trkpt>
      <trkpt lat="45.76846" lon="3.64478">
        <ele>597.874938</ele>
        <time>2022-06-16T19:46:57.934Z</time>
      </trkpt>
      <trkpt lat="45.76862" lon="3.64526">
        <ele>599.986544</ele>
        <time>2022-06-16T19:47:13.798Z</time>
      </trkpt>
      <trkpt lat="45.76867" lon="3.64552">
        <ele>601.046316</ele>
        <time>2022-06-16T19:47:22.643Z</time>
      </trkpt>
      <trkpt lat="45.76853" lon="3.64654">
        <ele>606.056453</ele>
        <time>2022-06-16T19:48:07.960Z</time>
      </trkpt>
      <trkpt lat="45.76858" lon="3.64671">
        <ele>607.251625</ele>
        <time>2022-06-16T19:48:17.084Z</time>
      </trkpt>
      <trkpt lat="45.76867" lon="3.64687">
        <ele>608.555137</ele>
        <time>2022-06-16T19:48:26.157Z</time>
      </trkpt>
      <trkpt lat="45.76959" lon="3.6477">
        <ele>618.385843</ele>
        <time>2022-06-16T19:49:34.571Z</time>
      </trkpt>
      <trkpt lat="45.76968" lon="3.64774">
        <ele>619.319272</ele>
        <time>2022-06-16T19:49:40.998Z</time>
      </trkpt>
      <trkpt lat="45.7699" lon="3.64774">
        <ele>620.896162</ele>
        <time>2022-06-16T19:49:53.217Z</time>
      </trkpt>
      <trkpt lat="45.7701" lon="3.64763">
        <ele>622.2389</ele>
        <time>2022-06-16T19:50:05.827Z</time>
      </trkpt>
      <trkpt lat="45.77112" lon="3.64691">
        <ele>629.300349</ele>
        <time>2022-06-16T19:50:57.028Z</time>
      </trkpt>
      <trkpt lat="45.77266" lon="3.64528">
        <ele>639.72263</ele>
        <time>2022-06-16T19:52:15.145Z</time>
      </trkpt>
      <trkpt lat="45.77287" lon="3.64511">
        <ele>641.103316</ele>
        <time>2022-06-16T19:52:27.946Z</time>
      </trkpt>
      <trkpt lat="45.77307" lon="3.64511">
        <ele>642.602957</ele>
        <time>2022-06-16T19:52:38.204Z</time>
      </trkpt>
      <trkpt lat="45.77375" lon="3.64551">
        <ele>648.161639</ele>
        <time>2022-06-16T19:53:16.941Z</time>
      </trkpt>
      <trkpt lat="45.77432" lon="3.64613">
        <ele>653.598229</ele>
        <time>2022-06-16T19:53:56.660Z</time>
      </trkpt>
      <trkpt lat="45.7745" lon="3.64645">
        <ele>656.100606</ele>
        <time>2022-06-16T19:54:14.608Z</time>
      </trkpt>
      <trkpt lat="45.77477" lon="3.64739">
        <ele>662.70956</ele>
        <time>2022-06-16T19:54:59.618Z</time>
      </trkpt>
      <trkpt lat="45.77494" lon="3.64766">
        <ele>665.061083</ele>
        <time>2022-06-16T19:55:15.800Z</time>
      </trkpt>
      <trkpt lat="45.77553" lon="3.64863">
        <ele>673.325305</ele>
        <time>2022-06-16T19:56:12.223Z</time>
      </trkpt>
      <trkpt lat="45.77598" lon="3.65018">
        <ele>683.814425</ele>
        <time>2022-06-16T19:57:26.773Z</time>
      </trkpt>
      <trkpt lat="45.77602" lon="3.65056">
        <ele>686.222552</ele>
        <time>2022-06-16T19:57:42.043Z</time>
      </trkpt>
      <trkpt lat="45.77592" lon="3.65154">
        <ele>690.667593</ele>
        <time>2022-06-16T19:58:17.838Z</time>
      </trkpt>
      <trkpt lat="45.77599" lon="3.65191">
        <ele>692.223735</ele>
        <time>2022-06-16T19:58:30.561Z</time>
      </trkpt>
      <trkpt lat="45.77709" lon="3.65399">
        <ele>701.086225</ele>
        <time>2022-06-16T19:59:44.581Z</time>
      </trkpt>
      <trkpt lat="45.7772" lon="3.65435">
        <ele>702.087715</ele>
        <time>2022-06-16T19:59:53.606Z</time>
      </trkpt>
      <trkpt lat="45.77718" lon="3.65454">
        <ele>702.590002</ele>
        <time>2022-06-16T19:59:58.059Z</time>
      </trkpt>
      <trkpt lat="45.77686" lon="3.65498">
        <ele>704.228461</ele>
        <time>2022-06-16T20:00:11.938Z</time>
      </trkpt>
      <trkpt lat="45.77391" lon="3.65733">
        <ele>712.261272</ele>
        <time>2022-06-16T20:01:45.773Z</time>
      </trkpt>
      <trkpt lat="45.77162" lon="3.65969">
        <ele>723.500764</ele>
        <time>2022-06-16T20:03:31.369Z</time>
      </trkpt>
      <trkpt lat="45.77152" lon="3.65994">
        <ele>724.438993</ele>
        <time>2022-06-16T20:03:39.025Z</time>
      </trkpt>
      <trkpt lat="45.77145" lon="3.66056">
        <ele>726.475649</ele>
        <time>2022-06-16T20:03:56.641Z</time>
      </trkpt>
      <trkpt lat="45.77149" lon="3.66089">
        <ele>727.547151</ele>
        <time>2022-06-16T20:04:05.837Z</time>
      </trkpt>
      <trkpt lat="45.77168" lon="3.66125">
        <ele>729.320645</ele>
        <time>2022-06-16T20:04:19.780Z</time>
      </trkpt>
      <trkpt lat="45.77259" lon="3.66207">
        <ele>737.231582</ele>
        <time>2022-06-16T20:05:13.629Z</time>
      </trkpt>
      <trkpt lat="45.77337" lon="3.6635">
        <ele>747.437643</ele>
        <time>2022-06-16T20:06:32.970Z</time>
      </trkpt>
      <trkpt lat="45.77387" lon="3.66419">
        <ele>753.46833</ele>
        <time>2022-06-16T20:07:14.993Z</time>
      </trkpt>
      <trkpt lat="45.77403" lon="3.66452">
        <ele>755.86639</ele>
        <time>2022-06-16T20:07:30.670Z</time>
      </trkpt>
      <trkpt lat="45.77408" lon="3.66481">
        <ele>757.646002</ele>
        <time>2022-06-16T20:07:42.452Z</time>
      </trkpt>
      <trkpt lat="45.77409" lon="3.66588">
        <ele>763.14852</ele>
        <time>2022-06-16T20:08:21.371Z</time>
      </trkpt>
      <trkpt lat="45.77417" lon="3.66605">
        <ele>764.227801</ele>
        <time>2022-06-16T20:08:28.151Z</time>
      </trkpt>
      <trkpt lat="45.77431" lon="3.66618">
        <ele>765.476052</ele>
        <time>2022-06-16T20:08:37.070Z</time>
      </trkpt>
      <trkpt lat="45.77472" lon="3.66625">
        <ele>768.546186</ele>
        <time>2022-06-16T20:08:58.022Z</time>
      </trkpt>
      <trkpt lat="45.77487" lon="3.66638">
        <ele>769.831473</ele>
        <time>2022-06-16T20:09:06.518Z</time>
      </trkpt>
      <trkpt lat="45.77501" lon="3.66663">
        <ele>771.833483</ele>
        <time>2022-06-16T20:09:19.532Z</time>
      </trkpt>
      <trkpt lat="45.77528" lon="3.66742">
        <ele>778.421086</ele>
        <time>2022-06-16T20:09:56.755Z</time>
      </trkpt>
      <trkpt lat="45.77547" lon="3.66777">
        <ele>781.757401</ele>
        <time>2022-06-16T20:10:17.534Z</time>
      </trkpt>
      <trkpt lat="45.7775" lon="3.66966">
        <ele>811.515072</ele>
        <time>2022-06-16T20:13:34.709Z</time>
      </trkpt>
      <trkpt lat="45.77776" lon="3.66991">
        <ele>814.901832</ele>
        <time>2022-06-16T20:13:59.205Z</time>
      </trkpt>
      <trkpt lat="45.77827" lon="3.67047">
        <ele>820.56581</ele>
        <time>2022-06-16T20:14:45.796Z</time>
      </trkpt>
      <trkpt lat="45.77892" lon="3.67104">
        <ele>827.251222</ele>
        <time>2022-06-16T20:15:27.805Z</time>
      </trkpt>
      <trkpt lat="45.77908" lon="3.6713">
        <ele>829.315813</ele>
        <time>2022-06-16T20:15:38.699Z</time>
      </trkpt>
      <trkpt lat="45.77948" lon="3.67204">
        <ele>830.447695</ele>
        <time>2022-06-16T20:15:57.524Z</time>
      </trkpt>
      <trkpt lat="45.77973" lon="3.67219">
        <ele>830.914614</ele>
        <time>2022-06-16T20:16:02.305Z</time>
      </trkpt>
      <trkpt lat="45.78007" lon="3.67208">
        <ele>831.523585</ele>
        <time>2022-06-16T20:16:08.849Z</time>
      </trkpt>
      <trkpt lat="45.78021" lon="3.67193">
        <ele>831.830404</ele>
        <time>2022-06-16T20:16:12.684Z</time>
      </trkpt>
      <trkpt lat="45.78047" lon="3.67137">
        <ele>832.789991</ele>
        <time>2022-06-16T20:16:21.489Z</time>
      </trkpt>
      <trkpt lat="45.78079" lon="3.67114">
        <ele>833.84545</ele>
        <time>2022-06-16T20:16:30.561Z</time>
      </trkpt>
      <trkpt lat="45.781" lon="3.67113">
        <ele>834.458223</ele>
        <time>2022-06-16T20:16:36.435Z</time>
      </trkpt>
      <trkpt lat="45.78185" lon="3.67129">
        <ele>836.973884</ele>
        <time>2022-06-16T20:17:05.638Z</time>
      </trkpt>
      <trkpt lat="45.78262" lon="3.67146">
        <ele>840.137026</ele>
        <time>2022-06-16T20:17:39.222Z</time>
      </trkpt>
      <trkpt lat="45.78271" lon="3.67154">
        <ele>840.652734</ele>
        <time>2022-06-16T20:17:44.497Z</time>
      </trkpt>
      <trkpt lat="45.7832" lon="3.67239">
        <ele>844.179694</ele>
        <time>2022-06-16T20:18:18.552Z</time>
      </trkpt>
      <trkpt lat="45.78338" lon="3.67261">
        <ele>845.252212</ele>
        <time>2022-06-16T20:18:27.380Z</time>
      </trkpt>
      <trkpt lat="45.78406" lon="3.67291">
        <ele>846.256742</ele>
        <time>2022-06-16T20:18:46.711Z</time>
      </trkpt>
      <trkpt lat="45.78499" lon="3.67341">
        <ele>846.712679</ele>
        <time>2022-06-16T20:19:03.289Z</time>
      </trkpt>
      <trkpt lat="45.78554" lon="3.6736">
        <ele>846.757006</ele>
        <time>2022-06-16T20:19:11.199Z</time>
      </trkpt>
      <trkpt lat="45.78591" lon="3.67361">
        <ele>846.674584</ele>
        <time>2022-06-16T20:19:16.403Z</time>
      </trkpt>
      <trkpt lat="45.78621" lon="3.67379">
        <ele>846.604349</ele>
        <time>2022-06-16T20:19:21.108Z</time>
      </trkpt>
      <trkpt lat="45.7863" lon="3.67373">
        <ele>846.581681</ele>
        <time>2022-06-16T20:19:22.907Z</time>
      </trkpt>
      <trkpt lat="45.78701" lon="3.67343">
        <ele>846.537789</ele>
        <time>2022-06-16T20:19:37.811Z</time>
      </trkpt>
      <trkpt lat="45.78807" lon="3.67327">
        <ele>848.813328</ele>
        <time>2022-06-16T20:20:08.249Z</time>
      </trkpt>
      <trkpt lat="45.78854" lon="3.6729">
        <ele>849.98496</ele>
        <time>2022-06-16T20:20:25.109Z</time>
      </trkpt>
      <trkpt lat="45.7887" lon="3.67284">
        <ele>850.33565</ele>
        <time>2022-06-16T20:20:29.594Z</time>
      </trkpt>
      <trkpt lat="45.78909" lon="3.67284">
        <ele>851.489967</ele>
        <time>2022-06-16T20:20:41.298Z</time>
      </trkpt>
      <trkpt lat="45.78946" lon="3.67283">
        <ele>852.614819</ele>
        <time>2022-06-16T20:20:52.565Z</time>
      </trkpt>
      <trkpt lat="45.78991" lon="3.67284">
        <ele>853.935599</ele>
        <time>2022-06-16T20:21:06.081Z</time>
      </trkpt>
      <trkpt lat="45.7904" lon="3.67296">
        <ele>855.407313</ele>
        <time>2022-06-16T20:21:22.810Z</time>
      </trkpt>
      <trkpt lat="45.79143" lon="3.67308">
        <ele>860.612827</ele>
        <time>2022-06-16T20:22:03.205Z</time>
      </trkpt>
      <trkpt lat="45.79183" lon="3.67306">
        <ele>862.682108</ele>
        <time>2022-06-16T20:22:20.733Z</time>
      </trkpt>
      <trkpt lat="45.79225" lon="3.67299">
        <ele>864.873957</ele>
        <time>2022-06-16T20:22:41.109Z</time>
      </trkpt>
      <trkpt lat="45.79298" lon="3.67246">
        <ele>871.232857</ele>
        <time>2022-06-16T20:23:26.277Z</time>
      </trkpt>
      <trkpt lat="45.79408" lon="3.67215">
        <ele>879.700383</ele>
        <time>2022-06-16T20:24:29.750Z</time>
      </trkpt>
      <trkpt lat="45.7943" lon="3.67221">
        <ele>881.038566</ele>
        <time>2022-06-16T20:24:43.153Z</time>
      </trkpt>
      <trkpt lat="45.79445" lon="3.67235">
        <ele>882.07551</ele>
        <time>2022-06-16T20:24:54.392Z</time>
      </trkpt>
      <trkpt lat="45.79453" lon="3.67257">
        <ele>883.066778</ele>
        <time>2022-06-16T20:25:03.870Z</time>
      </trkpt>
      <trkpt lat="45.79459" lon="3.67304">
        <ele>885.014262</ele>
        <time>2022-06-16T20:25:21.568Z</time>
      </trkpt>
      <trkpt lat="45.79467" lon="3.67324">
        <ele>885.96908</ele>
        <time>2022-06-16T20:25:29.450Z</time>
      </trkpt>
      <trkpt lat="45.79499" lon="3.67369">
        <ele>888.568212</ele>
        <time>2022-06-16T20:25:44.509Z</time>
      </trkpt>
      <trkpt lat="45.79534" lon="3.67389">
        <ele>889.290203</ele>
        <time>2022-06-16T20:25:53.958Z</time>
      </trkpt>
      <trkpt lat="45.79548" lon="3.6739">
        <ele>889.15165</ele>
        <time>2022-06-16T20:25:56.196Z</time>
      </trkpt>
      <trkpt lat="45.79566" lon="3.6738">
        <ele>888.964148</ele>
        <time>2022-06-16T20:25:59.589Z</time>
      </trkpt>
      <trkpt lat="45.79594" lon="3.6734">
        <ele>888.589259</ele>
        <time>2022-06-16T20:26:05.339Z</time>
      </trkpt>
      <trkpt lat="45.79598" lon="3.67298">
        <ele>888.301992</ele>
        <time>2022-06-16T20:26:09.193Z</time>
      </trkpt>
      <trkpt lat="45.7958" lon="3.67174">
        <ele>888.372809</ele>
        <time>2022-06-16T20:26:20.066Z</time>
      </trkpt>
      <trkpt lat="45.79585" lon="3.67123">
        <ele>889.032813</ele>
        <time>2022-06-16T20:26:24.915Z</time>
      </trkpt>
      <trkpt lat="45.79628" lon="3.67018">
        <ele>890.605055</ele>
        <time>2022-06-16T20:26:53.916Z</time>
      </trkpt>
      <trkpt lat="45.79652" lon="3.66979">
        <ele>891.945102</ele>
        <time>2022-06-16T20:27:11.355Z</time>
      </trkpt>
      <trkpt lat="45.79666" lon="3.66972">
        <ele>893.139705</ele>
        <time>2022-06-16T20:27:18.941Z</time>
      </trkpt>
      <trkpt lat="45.79726" lon="3.66952">
        <ele>898.351983</ele>
        <time>2022-06-16T20:27:53.271Z</time>
      </trkpt>
      <trkpt lat="45.79796" lon="3.669">
        <ele>904.954665</ele>
        <time>2022-06-16T20:28:44.944Z</time>
      </trkpt>
      <trkpt lat="45.79834" lon="3.66888">
        <ele>908.270145</ele>
        <time>2022-06-16T20:29:11.004Z</time>
      </trkpt>
      <trkpt lat="45.79969" lon="3.66898">
        <ele>919.836595</ele>
        <time>2022-06-16T20:30:28.071Z</time>
      </trkpt>
      <trkpt lat="45.80083" lon="3.66877">
        <ele>929.524498</ele>
        <time>2022-06-16T20:31:33.596Z</time>
      </trkpt>
      <trkpt lat="45.80212" lon="3.66863">
        <ele>939.652146</ele>
        <time>2022-06-16T20:32:51.483Z</time>
      </trkpt>
      <trkpt lat="45.80291" lon="3.66844">
        <ele>944.948413</ele>
        <time>2022-06-16T20:33:34.829Z</time>
      </trkpt>
      <trkpt lat="45.80335" lon="3.66856">
        <ele>947.864738</ele>
        <time>2022-06-16T20:33:52.732Z</time>
      </trkpt>
      <trkpt lat="45.80356" lon="3.66881">
        <ele>948.716732</ele>
        <time>2022-06-16T20:34:02.573Z</time>
      </trkpt>
      <trkpt lat="45.80398" lon="3.66892">
        <ele>949.054196</ele>
        <time>2022-06-16T20:34:13.456Z</time>
      </trkpt>
      <trkpt lat="45.80413" lon="3.66886">
        <ele>949.179561</ele>
        <time>2022-06-16T20:34:15.995Z</time>
      </trkpt>
      <trkpt lat="45.80539" lon="3.66736">
        <ele>950.025324</ele>
        <time>2022-06-16T20:34:42.056Z</time>
      </trkpt>
      <trkpt lat="45.80568" lon="3.66719">
        <ele>950.025324</ele>
        <time>2022-06-16T20:34:49.126Z</time>
      </trkpt>
      <trkpt lat="45.80637" lon="3.6669">
        <ele>950.025324</ele>
        <time>2022-06-16T20:35:07.757Z</time>
      </trkpt>
      <trkpt lat="45.80694" lon="3.66662">
        <ele>950.025324</ele>
        <time>2022-06-16T20:35:26.755Z</time>
      </trkpt>
      <trkpt lat="45.80701" lon="3.66658">
        <ele>950.025324</ele>
        <time>2022-06-16T20:35:29.328Z</time>
      </trkpt>
    </trkseg>
  </trk>
</gpx>